Wetterdaten: Mittwoch, 26.06.2019
Datum Zeit Temp. Aussen Temp. o. S. +5cm Feuchte Auss Luftdruck Regen Sonnenschein Regendauer Solar Windben Empfang
26.06.2019 00:00 27,2 C 25,6 C 24,4 C 71 % 1019,1 hPa 0,0 l/m 0 min 0 min 0 W/m 3,2 km/h (1 Bft) 97,87 %
26.06.2019 00:02 27,1 C 25,6 C 24,4 C 71 % 1019,1 hPa 0,0 l/m 0 min 0 min 0 W/m 3,2 km/h (1 Bft) 97,30 %
26.06.2019 00:04 27,1 C 25,6 C 24,4 C 71 % 1019,2 hPa 0,0 l/m 0 min 0 min 0 W/m 3,2 km/h (1 Bft) 97,83 %
26.06.2019 00:08 27,1 C 25,6 C 24,4 C 71 % 1019,2 hPa 0,0 l/m 0 min 0 min 0 W/m 3,2 km/h (1 Bft) 95,74 %
26.06.2019 00:10 27,0 C 25,6 C 24,4 C 71 % 1019,2 hPa 0,0 l/m 0 min 0 min 0 W/m 6,4 km/h (2 Bft) 97,87 %
26.06.2019 00:12 27,0 C 25,0 C 24,4 C 72 % 1019,1 hPa 0,0 l/m 0 min 0 min 0 W/m 3,2 km/h (1 Bft) 95,74 %
26.06.2019 00:14 26,9 C 25,6 C 24,4 C 72 % 1019,2 hPa 0,0 l/m 0 min 0 min 0 W/m 3,2 km/h (1 Bft) 93,62 %
26.06.2019 00:16 26,9 C 25,6 C 24,4 C 72 % 1019,2 hPa 0,0 l/m 0 min 0 min 0 W/m 6,4 km/h (2 Bft) 95,65 %
26.06.2019 00:18 26,9 C 25,6 C 24,4 C 73 % 1019,3 hPa 0,0 l/m 0 min 0 min 0 W/m 6,4 km/h (2 Bft) 95,74 %
26.06.2019 00:20 26,9 C 25,6 C 24,4 C 73 % 1019,4 hPa 0,0 l/m 0 min 0 min 0 W/m 6,4 km/h (2 Bft) 95,74 %
26.06.2019 00:22 26,8 C 25,6 C 24,4 C 73 % 1019,4 hPa 0,0 l/m 0 min 0 min 0 W/m 6,4 km/h (2 Bft) 95,74 %
26.06.2019 00:24 26,8 C 25,0 C 25,0 C 73 % 1019,4 hPa 0,0 l/m 0 min 0 min 0 W/m 6,4 km/h (2 Bft) 95,74 %
26.06.2019 00:26 26,8 C 25,0 C 25,0 C 73 % 1019,5 hPa 0,0 l/m 0 min 0 min 0 W/m 6,4 km/h (2 Bft) 95,74 %
26.06.2019 00:28 26,8 C 25,0 C 25,0 C 74 % 1019,5 hPa 0,0 l/m 0 min 0 min 0 W/m 6,4 km/h (2 Bft) 95,65 %
26.06.2019 00:30 26,8 C 25,0 C 24,4 C 74 % 1019,5 hPa 0,0 l/m 0 min 0 min 0 W/m 6,4 km/h (2 Bft) 95,74 %
26.06.2019 00:32 26,7 C 25,0 C 24,4 C 74 % 1019,6 hPa 0,0 l/m 0 min 0 min 0 W/m 12,9 km/h (3 Bft) 95,74 %
26.06.2019 00:34 26,7 C 25,0 C 24,4 C 75 % 1019,6 hPa 0,0 l/m 0 min 0 min 0 W/m 3,2 km/h (1 Bft) 93,62 %
26.06.2019 00:36 26,7 C 25,0 C 24,4 C 75 % 1019,5 hPa 0,0 l/m 0 min 0 min 0 W/m 3,2 km/h (1 Bft) 95,74 %
26.06.2019 00:38 26,7 C 25,0 C 24,4 C 75 % 1019,6 hPa 0,0 l/m 0 min 0 min 0 W/m 3,2 km/h (1 Bft) 95,74 %
26.06.2019 00:40 26,7 C 24,4 C 24,4 C 75 % 1019,6 hPa 0,0 l/m 0 min 0 min 0 W/m 6,4 km/h (2 Bft) 95,65 %
26.06.2019 00:42 26,6 C 24,4 C 24,4 C 75 % 1019,6 hPa 0,0 l/m 0 min 0 min 0 W/m 3,2 km/h (1 Bft) 93,62 %
26.06.2019 00:44 26,6 C 24,4 C 24,4 C 76 % 1019,6 hPa 0,0 l/m 0 min 0 min 0 W/m 3,2 km/h (1 Bft) 93,62 %
26.06.2019 00:46 26,6 C 24,4 C 24,4 C 76 % 1019,7 hPa 0,0 l/m 0 min 0 min 0 W/m 3,2 km/h (1 Bft) 100,00 %
26.06.2019 00:48 26,5 C 24,4 C 23,9 C 76 % 1019,7 hPa 0,0 l/m 0 min 0 min 0 W/m 3,2 km/h (1 Bft) 95,74 %
26.06.2019 00:50 26,5 C 24,4 C 23,9 C 76 % 1019,7 hPa 0,0 l/m 0 min 0 min 0 W/m 3,2 km/h (1 Bft) 97,83 %
26.06.2019 00:52 26,4 C 24,4 C 23,9 C 77 % 1019,7 hPa 0,0 l/m 0 min 0 min 0 W/m 3,2 km/h (1 Bft) 97,87 %
26.06.2019 00:54 26,4 C 24,4 C 23,9 C 77 % 1019,8 hPa 0,0 l/m 0 min 0 min 0 W/m 3,2 km/h (1 Bft) 95,74 %
26.06.2019 00:56 26,4 C 23,9 C 23,9 C 77 % 1019,8 hPa 0,0 l/m 0 min 0 min 0 W/m 3,2 km/h (1 Bft) 95,74 %
26.06.2019 00:58 26,3 C 24,4 C 23,9 C 77 % 1019,8 hPa 0,0 l/m 0 min 0 min 0 W/m 3,2 km/h (1 Bft) 95,74 %
26.06.2019 01:00 26,3 C 23,9 C 23,9 C 78 % 1019,8 hPa 0,0 l/m 0 min 0 min 0 W/m 3,2 km/h (1 Bft) 95,74 %
26.06.2019 01:02 26,3 C 23,9 C 23,9 C 78 % 1019,9 hPa 0,0 l/m 0 min 0 min 0 W/m 0,0 km/h (0 Bft) 95,65 %
26.06.2019 01:04 26,2 C 23,9 C 23,9 C 78 % 1019,9 hPa 0,0 l/m 0 min 0 min 0 W/m 3,2 km/h (1 Bft) 95,74 %
26.06.2019 01:06 26,2 C 23,9 C 23,9 C 78 % 1019,9 hPa 0,0 l/m 0 min 0 min 0 W/m 3,2 km/h (1 Bft) 95,74 %
26.06.2019 01:08 26,2 C 23,9 C 23,9 C 78 % 1019,9 hPa 0,0 l/m 0 min 0 min 0 W/m 0,0 km/h (0 Bft) 91,49 %
26.06.2019 01:10 26,2 C 23,9 C 23,3 C 79 % 1019,9 hPa 0,0 l/m 0 min 0 min 0 W/m 6,4 km/h (2 Bft) 95,74 %
26.06.2019 01:12 26,1 C 23,9 C 23,9 C 79 % 1019,9 hPa 0,0 l/m 0 min 0 min 0 W/m 3,2 km/h (1 Bft) 97,87 %
26.06.2019 01:14 26,1 C 23,9 C 23,9 C 79 % 1020,0 hPa 0,0 l/m 0 min 0 min 0 W/m 0,0 km/h (0 Bft) 95,65 %
26.06.2019 01:16 26,1 C 23,9 C 23,3 C 79 % 1020,0 hPa 0,0 l/m 0 min 0 min 0 W/m 3,2 km/h (1 Bft) 97,87 %
26.06.2019 01:18 26,0 C 23,9 C 23,3 C 79 % 1020,0 hPa 0,0 l/m 0 min 0 min 0 W/m 3,2 km/h (1 Bft) 97,87 %
26.06.2019 01:20 26,0 C 23,9 C 23,3 C 79 % 1020,0 hPa 0,0 l/m 0 min 0 min 0 W/m 3,2 km/h (1 Bft) 97,87 %
26.06.2019 01:22 25,9 C 23,9 C 23,3 C 79 % 1020,0 hPa 0,0 l/m 0 min 0 min 0 W/m 0,0 km/h (0 Bft) 97,87 %
26.06.2019 01:24 25,9 C 23,9 C 23,3 C 79 % 1020,0 hPa 0,0 l/m 0 min 0 min 0 W/m 3,2 km/h (1 Bft) 97,87 %
26.06.2019 01:26 25,9 C 23,9 C 23,3 C 79 % 1020,1 hPa 0,0 l/m 0 min 0 min 0 W/m 0,0 km/h (0 Bft) 95,65 %
26.06.2019 01:28 25,8 C 23,9 C 23,3 C 80 % 1020,1 hPa 0,0 l/m 0 min 0 min 0 W/m 6,4 km/h (2 Bft) 97,87 %
26.06.2019 01:30 25,8 C 23,9 C 23,3 C 80 % 1020,0 hPa 0,0 l/m 0 min 0 min 0 W/m 3,2 km/h (1 Bft) 97,87 %
26.06.2019 01:32 25,8 C 23,3 C 23,3 C 80 % 1020,0 hPa 0,0 l/m 0 min 0 min 0 W/m 0,0 km/h (0 Bft) 97,87 %
26.06.2019 01:34 25,7 C 23,3 C 23,3 C 80 % 1020,0 hPa 0,0 l/m 0 min 0 min 0 W/m 0,0 km/h (0 Bft) 97,87 %
26.06.2019 01:36 25,7 C 23,3 C 23,3 C 80 % 1020,0 hPa 0,0 l/m 0 min 0 min 0 W/m 0,0 km/h (0 Bft) 97,87 %
26.06.2019 01:38 25,7 C 23,3 C 22,8 C 80 % 1020,0 hPa 0,0 l/m 0 min 0 min 0 W/m 3,2 km/h (1 Bft) 97,83 %
26.06.2019 01:40 25,6 C 23,3 C 22,8 C 81 % 1020,0 hPa 0,0 l/m 0 min 0 min 0 W/m 3,2 km/h (1 Bft) 100,00 %
26.06.2019 01:42 25,6 C 23,3 C 22,8 C 81 % 1020,0 hPa 0,0 l/m 0 min 0 min 0 W/m 3,2 km/h (1 Bft) 97,87 %
26.06.2019 01:44 25,6 C 23,3 C 22,8 C 81 % 1020,1 hPa 0,0 l/m 0 min 0 min 0 W/m 3,2 km/h (1 Bft) 100,00 %
26.06.2019 01:46 25,5 C 23,3 C 22,8 C 81 % 1020,0 hPa 0,0 l/m 0 min 0 min 0 W/m 6,4 km/h (2 Bft) 100,00 %
26.06.2019 01:48 25,4 C 23,3 C 22,8 C 81 % 1020,0 hPa 0,0 l/m 0 min 0 min 0 W/m 3,2 km/h (1 Bft) 100,00 %
26.06.2019 01:50 25,4 C 23,3 C 22,8 C 81 % 1020,0 hPa 0,0 l/m 0 min 0 min 0 W/m 6,4 km/h (2 Bft) 100,00 %
26.06.2019 01:52 25,4 C 23,3 C 22,8 C 81 % 1020,0 hPa 0,0 l/m 0 min 0 min 0 W/m 0,0 km/h (0 Bft) 100,00 %
26.06.2019 01:54 25,3 C 23,3 C 22,8 C 82 % 1020,0 hPa 0,0 l/m 0 min 0 min 0 W/m 0,0 km/h (0 Bft) 100,00 %
26.06.2019 01:56 25,3 C 23,3 C 22,8 C 82 % 1020,0 hPa 0,0 l/m 0 min 0 min 0 W/m 3,2 km/h (1 Bft) 100,00 %
26.06.2019 01:58 25,3 C 23,3 C 22,8 C 82 % 1020,1 hPa 0,0 l/m 0 min 0 min 0 W/m 3,2 km/h (1 Bft) 100,00 %
26.06.2019 02:00 25,2 C 23,3 C 22,8 C 82 % 1020,1 hPa 0,0 l/m 0 min 0 min 0 W/m 0,0 km/h (0 Bft) 100,00 %
26.06.2019 02:02 25,2 C 23,3 C 22,8 C 82 % 1020,1 hPa 0,0 l/m 0 min 0 min 0 W/m 0,0 km/h (0 Bft) 100,00 %
26.06.2019 02:04 25,1 C 23,3 C 22,8 C 82 % 1020,1 hPa 0,0 l/m 0 min 0 min 0 W/m 0,0 km/h (0 Bft) 100,00 %
26.06.2019 02:06 25,1 C 23,3 C 22,8 C 82 % 1020,2 hPa 0,0 l/m 0 min 0 min 0 W/m 0,0 km/h (0 Bft) 100,00 %
26.06.2019 02:08 25,1 C 23,3 C 22,8 C 83 % 1020,2 hPa 0,0 l/m 0 min 0 min 0 W/m 0,0 km/h (0 Bft) 97,87 %
26.06.2019 02:10 25,1 C 23,3 C 22,8 C 83 % 1020,3 hPa 0,0 l/m 0 min 0 min 0 W/m 0,0 km/h (0 Bft) 100,00 %
26.06.2019 02:12 25,0 C 23,3 C 22,8 C 83 % 1020,3 hPa 0,0 l/m 0 min 0 min 0 W/m 0,0 km/h (0 Bft) 100,00 %
26.06.2019 02:14 25,0 C 23,3 C 22,8 C 83 % 1020,3 hPa 0,0 l/m 0 min 0 min 0 W/m 3,2 km/h (1 Bft) 100,00 %
26.06.2019 02:16 24,9 C 22,8 C 22,8 C 83 % 1020,4 hPa 0,0 l/m 0 min 0 min 0 W/m 0,0 km/h (0 Bft) 100,00 %
26.06.2019 02:18 24,9 C 22,8 C 22,8 C 83 % 1020,4 hPa 0,0 l/m 0 min 0 min 0 W/m 3,2 km/h (1 Bft) 100,00 %
26.06.2019 02:20 24,9 C 22,8 C 22,8 C 84 % 1020,4 hPa 0,0 l/m 0 min 0 min 0 W/m 0,0 km/h (0 Bft) 100,00 %
26.06.2019 02:22 24,8 C 22,8 C 22,8 C 84 % 1020,4 hPa 0,0 l/m 0 min 0 min 0 W/m 0,0 km/h (0 Bft) 100,00 %
26.06.2019 02:24 24,8 C 22,8 C 22,8 C 84 % 1020,5 hPa 0,0 l/m 0 min 0 min 0 W/m 0,0 km/h (0 Bft) 100,00 %
26.06.2019 02:26 24,8 C 22,8 C 22,8 C 84 % 1020,5 hPa 0,0 l/m 0 min 0 min 0 W/m 0,0 km/h (0 Bft) 100,00 %
26.06.2019 02:28 24,7 C 22,8 C 22,2 C 84 % 1020,6 hPa 0,0 l/m 0 min 0 min 0 W/m 0,0 km/h (0 Bft) 100,00 %
26.06.2019 02:30 24,7 C 22,8 C 22,2 C 84 % 1020,6 hPa 0,0 l/m 0 min 0 min 0 W/m 0,0 km/h (0 Bft) 97,87 %
26.06.2019 02:32 24,7 C 22,8 C 22,2 C 84 % 1020,6 hPa 0,0 l/m 0 min 0 min 0 W/m 0,0 km/h (0 Bft) 97,87 %
26.06.2019 02:34 24,7 C 22,8 C 22,2 C 84 % 1020,6 hPa 0,0 l/m 0 min 0 min 0 W/m 0,0 km/h (0 Bft) 100,00 %
26.06.2019 02:36 24,6 C 22,8 C 22,2 C 84 % 1020,7 hPa 0,0 l/m 0 min 0 min 0 W/m 0,0 km/h (0 Bft) 97,83 %
26.06.2019 02:38 24,6 C 22,8 C 22,2 C 84 % 1020,7 hPa 0,0 l/m 0 min 0 min 0 W/m 0,0 km/h (0 Bft) 100,00 %
26.06.2019 02:40 24,6 C 22,8 C 22,2 C 84 % 1020,7 hPa 0,0 l/m 0 min 0 min 0 W/m 0,0 km/h (0 Bft) 97,87 %
26.06.2019 02:42 24,6 C 22,8 C 22,2 C 84 % 1020,7 hPa 0,0 l/m 0 min 0 min 0 W/m 0,0 km/h (0 Bft) 100,00 %
26.06.2019 02:44 24,6 C 22,8 C 22,2 C 84 % 1020,7 hPa 0,0 l/m 0 min 0 min 0 W/m 0,0 km/h (0 Bft) 100,00 %
26.06.2019 02:46 24,5 C 22,8 C 22,2 C 84 % 1020,7 hPa 0,0 l/m 0 min 0 min 0 W/m 0,0 km/h (0 Bft) 97,87 %
26.06.2019 02:48 24,4 C 22,8 C 22,2 C 84 % 1020,7 hPa 0,0 l/m 0 min 0 min 0 W/m 0,0 km/h (0 Bft) 97,83 %
26.06.2019 02:50 24,4 C 22,8 C 22,2 C 85 % 1020,7 hPa 0,0 l/m 0 min 0 min 0 W/m 0,0 km/h (0 Bft) 97,87 %
26.06.2019 02:52 24,4 C 22,8 C 22,2 C 85 % 1020,8 hPa 0,0 l/m 0 min 0 min 0 W/m 6,4 km/h (2 Bft) 95,74 %
26.06.2019 02:54 24,4 C 22,2 C 22,2 C 85 % 1020,8 hPa 0,0 l/m 0 min 0 min 0 W/m 6,4 km/h (2 Bft) 100,00 %
26.06.2019 02:56 24,3 C 22,2 C 22,2 C 85 % 1020,9 hPa 0,0 l/m 0 min 0 min 0 W/m 0,0 km/h (0 Bft) 100,00 %
26.06.2019 02:58 24,3 C 22,2 C 22,2 C 85 % 1020,9 hPa 0,0 l/m 0 min 0 min 0 W/m 6,4 km/h (2 Bft) 93,62 %
26.06.2019 03:00 24,3 C 22,2 C 22,2 C 85 % 1021,0 hPa 0,0 l/m 0 min 0 min 0 W/m 0,0 km/h (0 Bft) 97,83 %
26.06.2019 03:02 24,2 C 22,2 C 22,2 C 85 % 1021,0 hPa 0,0 l/m 0 min 0 min 0 W/m 0,0 km/h (0 Bft) 100,00 %
26.06.2019 03:04 24,2 C 22,2 C 22,2 C 85 % 1021,1 hPa 0,0 l/m 0 min 0 min 0 W/m 0,0 km/h (0 Bft) 95,74 %
26.06.2019 03:06 24,2 C 22,2 C 22,2 C 85 % 1021,1 hPa 0,0 l/m 0 min 0 min 0 W/m 0,0 km/h (0 Bft) 97,87 %
26.06.2019 03:08 24,2 C 22,2 C 22,2 C 85 % 1021,2 hPa 0,0 l/m 0 min 0 min 0 W/m 0,0 km/h (0 Bft) 97,87 %
26.06.2019 03:10 24,1 C 22,2 C 22,2 C 85 % 1021,2 hPa 0,0 l/m 0 min 0 min 0 W/m 0,0 km/h (0 Bft) 95,65 %
26.06.2019 03:12 24,1 C 22,2 C 22,2 C 86 % 1021,2 hPa 0,0 l/m 0 min 0 min 0 W/m 0,0 km/h (0 Bft) 97,87 %
26.06.2019 03:14 24,1 C 22,2 C 21,7 C 86 % 1021,3 hPa 0,0 l/m 0 min 0 min 0 W/m 0,0 km/h (0 Bft) 97,87 %
26.06.2019 03:16 24,1 C 22,2 C 21,7 C 86 % 1021,4 hPa 0,0 l/m 0 min 0 min 0 W/m 0,0 km/h (0 Bft) 97,87 %
26.06.2019 03:18 24,1 C 22,2 C 21,7 C 86 % 1021,4 hPa 0,0 l/m 0 min 0 min 0 W/m 0,0 km/h (0 Bft) 97,87 %
26.06.2019 03:20 24,0 C 22,2 C 21,7 C 86 % 1021,5 hPa 0,0 l/m 0 min 0 min 0 W/m 0,0 km/h (0 Bft) 97,87 %
26.06.2019 03:22 24,0 C 22,2 C 21,7 C 86 % 1021,6 hPa 0,0 l/m 0 min 0 min 0 W/m 0,0 km/h (0 Bft) 95,65 %
26.06.2019 03:24 23,9 C 22,2 C 21,7 C 86 % 1021,7 hPa 0,0 l/m 0 min 0 min 0 W/m 0,0 km/h (0 Bft) 97,87 %
26.06.2019 03:26 23,9 C 22,2 C 21,7 C 86 % 1021,7 hPa 0,0 l/m 0 min 0 min 0 W/m 0,0 km/h (0 Bft) 97,87 %
26.06.2019 03:28 23,9 C 22,2 C 21,7 C 86 % 1021,7 hPa 0,0 l/m 0 min 0 min 0 W/m 0,0 km/h (0 Bft) 97,87 %
26.06.2019 03:30 23,9 C 22,2 C 21,7 C 86 % 1021,8 hPa 0,0 l/m 0 min 0 min 0 W/m 0,0 km/h (0 Bft) 95,74 %
26.06.2019 03:32 23,8 C 22,2 C 21,7 C 86 % 1021,9 hPa 0,0 l/m 0 min 0 min 0 W/m 0,0 km/h (0 Bft) 97,87 %
26.06.2019 03:34 23,8 C 21,7 C 21,7 C 86 % 1021,9 hPa 0,0 l/m 0 min 0 min 0 W/m 0,0 km/h (0 Bft) 97,83 %
26.06.2019 03:36 23,7 C 22,2 C 21,7 C 86 % 1021,9 hPa 0,0 l/m 0 min 0 min 0 W/m 0,0 km/h (0 Bft) 93,62 %
26.06.2019 03:38 23,7 C 21,7 C 21,7 C 86 % 1022,0 hPa 0,0 l/m 0 min 0 min 0 W/m 0,0 km/h (0 Bft) 91,49 %
26.06.2019 03:40 23,7 C 21,7 C 21,7 C 86 % 1022,0 hPa 0,0 l/m 0 min 0 min 0 W/m 0,0 km/h (0 Bft) 93,62 %
26.06.2019 03:42 23,7 C 21,7 C 21,1 C 86 % 1022,0 hPa 0,0 l/m 0 min 0 min 0 W/m 0,0 km/h (0 Bft) 93,62 %
26.06.2019 03:44 23,6 C 21,7 C 21,1 C 86 % 1022,0 hPa 0,0 l/m 0 min 0 min 0 W/m 0,0 km/h (0 Bft) 93,62 %
26.06.2019 03:46 23,6 C 21,7 C 21,1 C 86 % 1022,1 hPa 0,0 l/m 0 min 0 min 0 W/m 0,0 km/h (0 Bft) 93,48 %
26.06.2019 03:48 23,6 C 21,7 C 21,1 C 86 % 1022,1 hPa 0,0 l/m 0 min 0 min 0 W/m 0,0 km/h (0 Bft) 93,75 %
26.06.2019 03:50 23,6 C 21,7 C 21,1 C 86 % 1022,1 hPa 0,0 l/m 0 min 0 min 0 W/m 0,0 km/h (0 Bft) 91,49 %
26.06.2019 03:52 23,6 C 21,7 C 21,1 C 86 % 1022,1 hPa 0,0 l/m 0 min 0 min 0 W/m 0,0 km/h (0 Bft) 95,74 %
26.06.2019 03:54 23,5 C 21,7 C 21,1 C 86 % 1022,2 hPa 0,0 l/m 0 min 0 min 0 W/m 0,0 km/h (0 Bft) 95,74 %
26.06.2019 03:56 23,5 C 21,7 C 21,1 C 87 % 1022,2 hPa 0,0 l/m 0 min 0 min 0 W/m 0,0 km/h (0 Bft) 95,74 %
26.06.2019 03:58 23,4 C 21,7 C 21,1 C 87 % 1022,4 hPa 0,0 l/m 0 min 0 min 0 W/m 0,0 km/h (0 Bft) 95,65 %
26.06.2019 04:00 23,4 C 21,7 C 21,1 C 87 % 1022,4 hPa 0,0 l/m 0 min 0 min 0 W/m 0,0 km/h (0 Bft) 95,74 %
26.06.2019 04:02 23,4 C 21,7 C 21,1 C 87 % 1022,4 hPa 0,0 l/m 0 min 0 min 0 W/m 0,0 km/h (0 Bft) 100,00 %
26.06.2019 04:04 23,4 C 21,7 C 21,1 C 87 % 1022,5 hPa 0,0 l/m 0 min 0 min 0 W/m 0,0 km/h (0 Bft) 97,87 %
26.06.2019 04:06 23,4 C 21,7 C 21,1 C 87 % 1022,5 hPa 0,0 l/m 0 min 0 min 0 W/m 0,0 km/h (0 Bft) 95,74 %
26.06.2019 04:08 23,3 C 21,1 C 21,1 C 87 % 1022,6 hPa 0,0 l/m 0 min 0 min 0 W/m 0,0 km/h (0 Bft) 91,30 %
26.06.2019 04:10 23,3 C 21,7 C 21,1 C 87 % 1022,6 hPa 0,0 l/m 0 min 0 min 0 W/m 0,0 km/h (0 Bft) 93,62 %
26.06.2019 04:12 23,3 C 21,7 C 21,1 C 87 % 1022,7 hPa 0,0 l/m 0 min 0 min 0 W/m 0,0 km/h (0 Bft) 95,74 %
26.06.2019 04:14 23,2 C 21,1 C 21,1 C 87 % 1022,7 hPa 0,0 l/m 0 min 0 min 0 W/m 0,0 km/h (0 Bft) 97,14 %
26.06.2019 04:16 23,2 C 21,7 C 21,1 C 87 % 1022,9 hPa 0,0 l/m 0 min 0 min 0 W/m 0,0 km/h (0 Bft) 95,08 %
26.06.2019 04:18 23,2 C 21,7 C 21,1 C 87 % 1023,0 hPa 0,0 l/m 0 min 0 min 0 W/m 6,4 km/h (2 Bft) 95,74 %
26.06.2019 04:20 23,1 C 21,1 C 21,1 C 87 % 1023,0 hPa 0,0 l/m 0 min 0 min 0 W/m 0,0 km/h (0 Bft) 95,74 %
26.06.2019 04:22 23,1 C 21,1 C 21,1 C 87 % 1023,0 hPa 0,0 l/m 0 min 0 min 0 W/m 3,2 km/h (1 Bft) 97,87 %
26.06.2019 04:24 23,1 C 21,1 C 21,1 C 87 % 1023,1 hPa 0,0 l/m 0 min 0 min 0 W/m 3,2 km/h (1 Bft) 97,87 %
26.06.2019 04:26 23,0 C 21,1 C 21,1 C 87 % 1023,1 hPa 0,0 l/m 0 min 0 min 0 W/m 0,0 km/h (0 Bft) 95,74 %
26.06.2019 04:28 23,0 C 21,1 C 21,1 C 87 % 1023,1 hPa 0,0 l/m 0 min 0 min 0 W/m 0,0 km/h (0 Bft) 97,83 %
26.06.2019 04:30 22,9 C 21,1 C 21,1 C 87 % 1023,2 hPa 0,0 l/m 0 min 0 min 0 W/m 3,2 km/h (1 Bft) 97,87 %
26.06.2019 04:32 22,9 C 21,1 C 21,1 C 87 % 1023,2 hPa 0,0 l/m 0 min 0 min 0 W/m 3,2 km/h (1 Bft) 97,87 %
26.06.2019 04:34 22,9 C 21,1 C 21,1 C 87 % 1023,2 hPa 0,0 l/m 0 min 0 min 0 W/m 0,0 km/h (0 Bft) 100,00 %
26.06.2019 04:36 22,8 C 21,1 C 21,1 C 87 % 1023,3 hPa 0,0 l/m 0 min 0 min 0 W/m 0,0 km/h (0 Bft) 100,00 %
26.06.2019 04:38 22,8 C 21,1 C 21,1 C 87 % 1023,2 hPa 0,0 l/m 0 min 0 min 0 W/m 0,0 km/h (0 Bft) 100,00 %
26.06.2019 04:40 22,8 C 21,1 C 21,1 C 87 % 1023,3 hPa 0,0 l/m 0 min 0 min 0 W/m 0,0 km/h (0 Bft) 100,00 %
26.06.2019 04:42 22,8 C 21,1 C 21,1 C 87 % 1023,4 hPa 0,0 l/m 0 min 0 min 0 W/m 0,0 km/h (0 Bft) 100,00 %
26.06.2019 04:44 22,8 C 21,1 C 21,1 C 87 % 1023,3 hPa 0,0 l/m 0 min 0 min 0 W/m 0,0 km/h (0 Bft) 100,00 %
26.06.2019 04:46 22,7 C 21,1 C 21,1 C 87 % 1023,3 hPa 0,0 l/m 0 min 0 min 0 W/m 0,0 km/h (0 Bft) 100,00 %
26.06.2019 04:48 22,7 C 21,1 C 20,6 C 87 % 1023,3 hPa 0,0 l/m 0 min 0 min 0 W/m 0,0 km/h (0 Bft) 100,00 %
26.06.2019 04:50 22,7 C 21,1 C 20,6 C 87 % 1023,4 hPa 0,0 l/m 0 min 0 min 0 W/m 0,0 km/h (0 Bft) 100,00 %
26.06.2019 04:52 22,7 C 21,1 C 21,1 C 88 % 1023,5 hPa 0,0 l/m 0 min 0 min 0 W/m 0,0 km/h (0 Bft) 100,00 %
26.06.2019 04:54 22,7 C 21,1 C 21,1 C 88 % 1023,5 hPa 0,0 l/m 0 min 0 min 0 W/m 0,0 km/h (0 Bft) 100,00 %
26.06.2019 04:56 22,7 C 21,1 C 21,1 C 88 % 1023,6 hPa 0,0 l/m 0 min 0 min 0 W/m 0,0 km/h (0 Bft) 100,00 %
26.06.2019 04:58 22,6 C 21,1 C 21,1 C 88 % 1023,6 hPa 0,0 l/m 0 min 0 min 0 W/m 0,0 km/h (0 Bft) 97,87 %
26.06.2019 05:00 22,6 C 21,1 C 21,1 C 88 % 1023,6 hPa 0,0 l/m 0 min 0 min 0 W/m 0,0 km/h (0 Bft) 100,00 %
26.06.2019 05:02 22,6 C 21,1 C 21,1 C 88 % 1023,6 hPa 0,0 l/m 0 min 0 min 0 W/m 0,0 km/h (0 Bft) 100,00 %
26.06.2019 05:04 22,6 C 21,1 C 21,1 C 88 % 1023,7 hPa 0,0 l/m 0 min 0 min 0 W/m 0,0 km/h (0 Bft) 100,00 %
26.06.2019 05:06 22,6 C 21,1 C 21,1 C 88 % 1023,7 hPa 0,0 l/m 0 min 0 min 0 W/m 0,0 km/h (0 Bft) 100,00 %
26.06.2019 05:08 22,6 C 21,1 C 21,1 C 89 % 1023,7 hPa 0,0 l/m 0 min 0 min 0 W/m 0,0 km/h (0 Bft) 100,00 %
26.06.2019 05:10 22,5 C 21,1 C 21,1 C 89 % 1023,8 hPa 0,0 l/m 0 min 0 min 0 W/m 0,0 km/h (0 Bft) 100,00 %
26.06.2019 05:12 22,5 C 21,1 C 21,1 C 89 % 1023,8 hPa 0,0 l/m 0 min 0 min 0 W/m 0,0 km/h (0 Bft) 100,00 %
26.06.2019 05:14 22,5 C 21,1 C 21,1 C 89 % 1023,9 hPa 0,0 l/m 0 min 0 min 0 W/m 0,0 km/h (0 Bft) 100,00 %
26.06.2019 05:16 22,5 C 21,1 C 21,1 C 89 % 1023,9 hPa 0,0 l/m 0 min 0 min 0 W/m 0,0 km/h (0 Bft) 100,00 %
26.06.2019 05:18 22,4 C 21,1 C 21,1 C 89 % 1023,9 hPa 0,0 l/m 0 min 0 min 0 W/m 0,0 km/h (0 Bft) 100,00 %
26.06.2019 05:20 22,4 C 21,1 C 21,1 C 89 % 1023,9 hPa 0,0 l/m 0 min 0 min 0 W/m 0,0 km/h (0 Bft) 100,00 %
26.06.2019 05:22 22,4 C 21,1 C 21,1 C 89 % 1023,9 hPa 0,0 l/m 0 min 0 min 0 W/m 0,0 km/h (0 Bft) 100,00 %
26.06.2019 05:24 22,4 C 21,1 C 21,1 C 89 % 1024,0 hPa 0,0 l/m 0 min 0 min 0 W/m 0,0 km/h (0 Bft) 100,00 %
26.06.2019 05:26 22,4 C 21,1 C 21,1 C 89 % 1024,0 hPa 0,0 l/m 0 min 0 min 0 W/m 0,0 km/h (0 Bft) 100,00 %
26.06.2019 05:28 22,3 C 21,1 C 21,1 C 89 % 1024,0 hPa 0,0 l/m 0 min 0 min 4 W/m 0,0 km/h (0 Bft) 100,00 %
26.06.2019 05:30 22,3 C 21,1 C 21,1 C 89 % 1024,1 hPa 0,0 l/m 0 min 0 min 5 W/m 0,0 km/h (0 Bft) 100,00 %
26.06.2019 05:32 22,3 C 21,1 C 21,1 C 89 % 1024,2 hPa 0,0 l/m 0 min 0 min 5 W/m 3,2 km/h (1 Bft) 100,00 %
26.06.2019 05:34 22,3 C 21,1 C 21,1 C 89 % 1024,3 hPa 0,0 l/m 0 min 0 min 5 W/m 6,4 km/h (2 Bft) 100,00 %
26.06.2019 05:36 22,2 C 20,6 C 21,1 C 89 % 1024,2 hPa 0,0 l/m 0 min 0 min 7 W/m 3,2 km/h (1 Bft) 100,00 %
26.06.2019 05:38 22,2 C 21,1 C 21,1 C 89 % 1024,2 hPa 0,0 l/m 0 min 0 min 7 W/m 3,2 km/h (1 Bft) 100,00 %
26.06.2019 05:40 22,2 C 21,1 C 21,1 C 89 % 1024,2 hPa 0,0 l/m 0 min 0 min 8 W/m 3,2 km/h (1 Bft) 100,00 %
26.06.2019 05:42 22,2 C 21,1 C 21,1 C 89 % 1024,3 hPa 0,0 l/m 0 min 0 min 9 W/m 6,4 km/h (2 Bft) 100,00 %
26.06.2019 05:44 22,2 C 21,1 C 21,1 C 89 % 1024,3 hPa 0,0 l/m 0 min 0 min 10 W/m 6,4 km/h (2 Bft) 97,87 %
26.06.2019 05:46 22,1 C 21,1 C 21,1 C 89 % 1024,4 hPa 0,0 l/m 0 min 0 min 11 W/m 3,2 km/h (1 Bft) 100,00 %
26.06.2019 05:48 22,1 C 21,1 C 21,1 C 89 % 1024,4 hPa 0,0 l/m 0 min 0 min 11 W/m 6,4 km/h (2 Bft) 97,87 %
26.06.2019 05:50 22,1 C 20,6 C 21,1 C 89 % 1024,4 hPa 0,0 l/m 0 min 0 min 12 W/m 3,2 km/h (1 Bft) 100,00 %
26.06.2019 05:52 22,1 C 20,6 C 20,6 C 89 % 1024,4 hPa 0,0 l/m 0 min 0 min 12 W/m 3,2 km/h (1 Bft) 100,00 %
26.06.2019 05:54 22,1 C 20,6 C 20,6 C 89 % 1024,4 hPa 0,0 l/m 0 min 0 min 13 W/m 3,2 km/h (1 Bft) 97,87 %
26.06.2019 05:56 22,0 C 20,6 C 21,1 C 89 % 1024,5 hPa 0,0 l/m 0 min 0 min 14 W/m 3,2 km/h (1 Bft) 100,00 %
26.06.2019 05:58 22,0 C 20,6 C 21,1 C 89 % 1024,5 hPa 0,0 l/m 0 min 0 min 15 W/m 3,2 km/h (1 Bft) 97,87 %
26.06.2019 06:00 22,0 C 20,6 C 20,6 C 89 % 1024,6 hPa 0,0 l/m 0 min 0 min 16 W/m 3,2 km/h (1 Bft) 97,83 %
26.06.2019 06:02 21,9 C 20,6 C 20,6 C 89 % 1024,6 hPa 0,0 l/m 0 min 0 min 17 W/m 0,0 km/h (0 Bft) 95,74 %
26.06.2019 06:04 21,9 C 20,6 C 20,6 C 89 % 1024,6 hPa 0,0 l/m 0 min 0 min 18 W/m 0,0 km/h (0 Bft) 97,87 %
26.06.2019 06:08 21,9 C 20,6 C 20,6 C 89 % 1024,6 hPa 0,0 l/m 0 min 0 min 19 W/m 6,4 km/h (2 Bft) 96,81 %
26.06.2019 06:10 21,9 C 20,6 C 21,1 C 89 % 1024,7 hPa 0,0 l/m 0 min 0 min 19 W/m 3,2 km/h (1 Bft) 97,87 %
26.06.2019 06:12 21,9 C 20,6 C 20,6 C 89 % 1024,7 hPa 0,0 l/m 0 min 0 min 21 W/m 3,2 km/h (1 Bft) 97,83 %
26.06.2019 06:14 21,8 C 21,1 C 21,1 C 89 % 1024,8 hPa 0,0 l/m 0 min 0 min 21 W/m 3,2 km/h (1 Bft) 95,74 %
26.06.2019 06:16 21,8 C 21,1 C 21,1 C 89 % 1024,8 hPa 0,0 l/m 0 min 0 min 23 W/m 3,2 km/h (1 Bft) 97,87 %
26.06.2019 06:18 21,8 C 21,1 C 21,1 C 89 % 1024,8 hPa 0,0 l/m 0 min 0 min 23 W/m 3,2 km/h (1 Bft) 95,74 %
26.06.2019 06:20 21,8 C 20,6 C 20,6 C 89 % 1024,9 hPa 0,0 l/m 0 min 0 min 25 W/m 3,2 km/h (1 Bft) 95,74 %
26.06.2019 06:22 21,8 C 21,1 C 21,1 C 89 % 1024,8 hPa 0,0 l/m 0 min 0 min 25 W/m 3,2 km/h (1 Bft) 95,74 %
26.06.2019 06:24 21,8 C 21,1 C 20,6 C 89 % 1024,9 hPa 0,0 l/m 0 min 0 min 26 W/m 3,2 km/h (1 Bft) 95,65 %
26.06.2019 06:26 21,8 C 21,1 C 21,1 C 89 % 1025,0 hPa 0,0 l/m 0 min 0 min 27 W/m 0,0 km/h (0 Bft) 91,49 %
26.06.2019 06:28 21,7 C 21,1 C 20,6 C 89 % 1024,9 hPa 0,0 l/m 0 min 0 min 28 W/m 9,7 km/h (2 Bft) 93,62 %
26.06.2019 06:30 21,7 C 21,1 C 20,6 C 89 % 1024,9 hPa 0,0 l/m 0 min 0 min 28 W/m 6,4 km/h (2 Bft) 95,74 %
26.06.2019 06:32 21,7 C 21,1 C 20,6 C 89 % 1025,0 hPa 0,0 l/m 0 min 0 min 30 W/m 0,0 km/h (0 Bft) 95,74 %
26.06.2019 06:34 21,7 C 21,1 C 21,1 C 89 % 1024,9 hPa 0,0 l/m 0 min 0 min 30 W/m 0,0 km/h (0 Bft) 93,62 %
26.06.2019 06:36 21,7 C 21,1 C 21,1 C 89 % 1024,9 hPa 0,0 l/m 0 min 0 min 32 W/m 0,0 km/h (0 Bft) 95,65 %
26.06.2019 06:38 21,7 C 21,1 C 21,1 C 89 % 1024,9 hPa 0,0 l/m 0 min 0 min 32 W/m 0,0 km/h (0 Bft) 95,74 %
26.06.2019 06:40 21,7 C 21,1 C 21,1 C 89 % 1024,9 hPa 0,0 l/m 0 min 0 min 33 W/m 0,0 km/h (0 Bft) 95,74 %
26.06.2019 06:42 21,7 C 21,1 C 21,1 C 89 % 1024,9 hPa 0,0 l/m 0 min 0 min 33 W/m 3,2 km/h (1 Bft) 95,74 %
26.06.2019 06:44 21,7 C 21,1 C 21,1 C 89 % 1024,9 hPa 0,0 l/m 0 min 0 min 35 W/m 6,4 km/h (2 Bft) 93,62 %
26.06.2019 06:46 21,7 C 21,1 C 21,1 C 89 % 1024,9 hPa 0,0 l/m 0 min 0 min 35 W/m 3,2 km/h (1 Bft) 93,48 %
26.06.2019 06:48 21,7 C 21,1 C 21,1 C 89 % 1025,0 hPa 0,0 l/m 0 min 0 min 37 W/m 3,2 km/h (1 Bft) 95,74 %
26.06.2019 06:50 21,7 C 21,1 C 21,1 C 89 % 1025,0 hPa 0,0 l/m 0 min 0 min 38 W/m 3,2 km/h (1 Bft) 97,87 %
26.06.2019 06:52 21,8 C 21,1 C 21,1 C 89 % 1024,9 hPa 0,0 l/m 0 min 0 min 39 W/m 3,2 km/h (1 Bft) 97,87 %
26.06.2019 06:54 21,8 C 21,1 C 21,1 C 89 % 1024,9 hPa 0,0 l/m 0 min 0 min 40 W/m 0,0 km/h (0 Bft) 97,87 %
26.06.2019 06:56 21,8 C 21,1 C 21,1 C 89 % 1024,9 hPa 0,0 l/m 0 min 0 min 40 W/m 0,0 km/h (0 Bft) 97,87 %
26.06.2019 06:58 21,8 C 21,1 C 21,1 C 89 % 1024,9 hPa 0,0 l/m 0 min 0 min 42 W/m 0,0 km/h (0 Bft) 97,87 %
26.06.2019 07:00 21,8 C 21,1 C 21,1 C 89 % 1024,9 hPa 0,0 l/m 0 min 0 min 42 W/m 0,0 km/h (0 Bft) 95,65 %
26.06.2019 07:02 21,8 C 21,1 C 21,1 C 89 % 1024,9 hPa 0,0 l/m 0 min 0 min 44 W/m 0,0 km/h (0 Bft) 97,87 %
26.06.2019 07:04 21,8 C 21,1 C 21,1 C 89 % 1024,8 hPa 0,0 l/m 0 min 0 min 44 W/m 0,0 km/h (0 Bft) 97,87 %
26.06.2019 07:06 21,8 C 21,7 C 21,1 C 89 % 1024,8 hPa 0,0 l/m 0 min 0 min 46 W/m 0,0 km/h (0 Bft) 97,87 %
26.06.2019 07:08 21,8 C 21,7 C 21,1 C 89 % 1024,9 hPa 0,0 l/m 0 min 0 min 47 W/m 12,9 km/h (3 Bft) 97,87 %
26.06.2019 07:10 21,8 C 21,7 C 21,1 C 89 % 1024,8 hPa 0,0 l/m 0 min 0 min 47 W/m 6,4 km/h (2 Bft) 97,83 %
26.06.2019 07:12 21,8 C 21,7 C 21,1 C 89 % 1024,9 hPa 0,0 l/m 0 min 0 min 49 W/m 3,2 km/h (1 Bft) 95,74 %
26.06.2019 07:14 21,8 C 21,7 C 21,1 C 89 % 1024,9 hPa 0,0 l/m 0 min 0 min 50 W/m 3,2 km/h (1 Bft) 97,87 %
26.06.2019 07:16 21,8 C 21,7 C 21,1 C 89 % 1024,9 hPa 0,0 l/m 0 min 0 min 51 W/m 3,2 km/h (1 Bft) 97,87 %
26.06.2019 07:18 21,9 C 21,7 C 21,1 C 89 % 1024,9 hPa 0,0 l/m 0 min 0 min 53 W/m 6,4 km/h (2 Bft) 97,87 %
26.06.2019 07:20 21,9 C 21,7 C 21,1 C 89 % 1024,9 hPa 0,0 l/m 0 min 0 min 54 W/m 12,9 km/h (3 Bft) 97,87 %
26.06.2019 07:22 21,9 C 21,7 C 21,1 C 89 % 1024,9 hPa 0,0 l/m 0 min 0 min 55 W/m 9,7 km/h (2 Bft) 97,83 %
26.06.2019 07:24 21,9 C 21,7 C 21,1 C 89 % 1024,9 hPa 0,0 l/m 0 min 0 min 56 W/m 6,4 km/h (2 Bft) 97,87 %
26.06.2019 07:26 21,9 C 21,7 C 21,1 C 89 % 1024,9 hPa 0,0 l/m 0 min 0 min 58 W/m 9,7 km/h (2 Bft) 97,87 %
26.06.2019 07:28 21,9 C 21,7 C 21,1 C 89 % 1024,9 hPa 0,0 l/m 0 min 0 min 59 W/m 6,4 km/h (2 Bft) 97,87 %
26.06.2019 07:30 21,9 C 21,7 C 21,1 C 89 % 1024,9 hPa 0,0 l/m 0 min 0 min 61 W/m 3,2 km/h (1 Bft) 97,87 %
26.06.2019 07:32 21,9 C 21,7 C 21,1 C 89 % 1024,9 hPa 0,0 l/m 0 min 0 min 62 W/m 3,2 km/h (1 Bft) 95,74 %
26.06.2019 07:34 21,9 C 21,7 C 21,1 C 89 % 1024,9 hPa 0,0 l/m 0 min 0 min 66 W/m 6,4 km/h (2 Bft) 97,83 %
26.06.2019 07:36 21,9 C 22,2 C 21,7 C 89 % 1024,8 hPa 0,0 l/m 0 min 0 min 64 W/m 9,7 km/h (2 Bft) 95,74 %
26.06.2019 07:38 21,9 C 22,2 C 21,7 C 89 % 1024,9 hPa 0,0 l/m 0 min 0 min 65 W/m 3,2 km/h (1 Bft) 95,74 %
26.06.2019 07:40 21,9 C 22,2 C 21,7 C 89 % 1024,8 hPa 0,0 l/m 0 min 0 min 67 W/m 6,4 km/h (2 Bft) 95,74 %
26.06.2019 07:42 22,0 C 22,2 C 21,7 C 89 % 1024,8 hPa 0,0 l/m 0 min 0 min 68 W/m 3,2 km/h (1 Bft) 97,87 %
26.06.2019 07:44 22,0 C 22,2 C 21,7 C 89 % 1024,8 hPa 0,0 l/m 0 min 0 min 69 W/m 3,2 km/h (1 Bft) 97,87 %
26.06.2019 07:46 22,0 C 22,2 C 21,7 C 89 % 1024,8 hPa 0,0 l/m 0 min 0 min 71 W/m 3,2 km/h (1 Bft) 95,65 %
26.06.2019 07:48 22,1 C 22,2 C 21,7 C 89 % 1024,8 hPa 0,0 l/m 0 min 0 min 72 W/m 6,4 km/h (2 Bft) 97,87 %
26.06.2019 07:50 22,1 C 22,2 C 21,7 C 89 % 1024,8 hPa 0,0 l/m 0 min 0 min 74 W/m 9,7 km/h (2 Bft) 97,87 %
26.06.2019 07:52 22,0 C 22,2 C 21,7 C 89 % 1024,9 hPa 0,0 l/m 0 min 0 min 76 W/m 6,4 km/h (2 Bft) 97,87 %
26.06.2019 07:54 22,1 C 22,2 C 21,7 C 89 % 1024,9 hPa 0,0 l/m 0 min 0 min 77 W/m 12,9 km/h (3 Bft) 97,87 %
26.06.2019 07:56 22,0 C 22,2 C 21,7 C 89 % 1025,0 hPa 0,0 l/m 0 min 0 min 78 W/m 9,7 km/h (2 Bft) 100,00 %
26.06.2019 07:58 22,0 C 22,8 C 21,7 C 88 % 1025,0 hPa 0,0 l/m 0 min 0 min 79 W/m 12,9 km/h (3 Bft) 100,00 %
26.06.2019 08:00 22,0 C 23,9 C 21,7 C 88 % 1024,9 hPa 0,0 l/m 0 min 0 min 81 W/m 9,7 km/h (2 Bft) 100,00 %
26.06.2019 08:02 22,1 C 24,4 C 21,7 C 88 % 1025,0 hPa 0,0 l/m 0 min 0 min 83 W/m 6,4 km/h (2 Bft) 100,00 %
26.06.2019 08:04 22,1 C 25,0 C 21,7 C 88 % 1025,0 hPa 0,0 l/m 0 min 0 min 83 W/m 6,4 km/h (2 Bft) 100,00 %
26.06.2019 08:06 22,1 C 25,6 C 21,7 C 88 % 1025,0 hPa 0,0 l/m 0 min 0 min 85 W/m 9,7 km/h (2 Bft) 100,00 %
26.06.2019 08:08 22,1 C 25,6 C 21,7 C 88 % 1025,0 hPa 0,0 l/m 0 min 0 min 86 W/m 9,7 km/h (2 Bft) 100,00 %
26.06.2019 08:10 22,2 C 25,6 C 21,7 C 88 % 1025,0 hPa 0,0 l/m 0 min 0 min 88 W/m 6,4 km/h (2 Bft) 97,83 %
26.06.2019 08:12 22,2 C 25,6 C 21,7 C 88 % 1025,0 hPa 0,0 l/m 0 min 0 min 90 W/m 6,4 km/h (2 Bft) 100,00 %
26.06.2019 08:14 22,3 C 25,6 C 21,7 C 88 % 1025,0 hPa 0,0 l/m 0 min 0 min 91 W/m 9,7 km/h (2 Bft) 100,00 %
26.06.2019 08:16 22,3 C 25,6 C 21,7 C 88 % 1025,0 hPa 0,0 l/m 0 min 0 min 95 W/m 9,7 km/h (2 Bft) 97,87 %
26.06.2019 08:18 22,4 C 26,1 C 22,2 C 88 % 1025,0 hPa 0,0 l/m 0 min 0 min 97 W/m 16,1 km/h (3 Bft) 97,87 %
26.06.2019 08:20 22,4 C 26,7 C 22,2 C 88 % 1024,9 hPa 0,0 l/m 0 min 0 min 98 W/m 9,7 km/h (2 Bft) 100,00 %
26.06.2019 08:22 22,6 C 26,7 C 22,2 C 88 % 1024,9 hPa 0,0 l/m 0 min 0 min 98 W/m 6,4 km/h (2 Bft) 97,87 %
26.06.2019 08:24 22,6 C 26,1 C 22,2 C 87 % 1024,9 hPa 0,0 l/m 0 min 0 min 100 W/m 6,4 km/h (2 Bft) 100,00 %
26.06.2019 08:26 22,7 C 26,1 C 22,8 C 87 % 1024,9 hPa 0,0 l/m 0 min 0 min 103 W/m 6,4 km/h (2 Bft) 100,00 %
26.06.2019 08:28 22,7 C 26,7 C 23,3 C 87 % 1024,9 hPa 0,0 l/m 0 min 0 min 106 W/m 6,4 km/h (2 Bft) 100,00 %
26.06.2019 08:30 22,8 C 26,7 C 24,4 C 86 % 1024,9 hPa 0,0 l/m 0 min 0 min 107 W/m 9,7 km/h (2 Bft) 100,00 %
26.06.2019 08:32 22,9 C 26,7 C 25,6 C 86 % 1024,9 hPa 0,0 l/m 0 min 0 min 108 W/m 12,9 km/h (3 Bft) 100,00 %
26.06.2019 08:34 22,9 C 27,8 C 26,7 C 86 % 1024,9 hPa 0,0 l/m 0 min 0 min 109 W/m 6,4 km/h (2 Bft) 100,00 %
26.06.2019 08:36 23,1 C 27,8 C 27,2 C 86 % 1024,8 hPa 0,0 l/m 0 min 0 min 109 W/m 6,4 km/h (2 Bft) 100,00 %
26.06.2019 08:38 23,2 C 27,8 C 27,2 C 86 % 1024,9 hPa 0,0 l/m 0 min 0 min 109 W/m 6,4 km/h (2 Bft) 97,87 %
26.06.2019 08:40 23,3 C 28,3 C 27,8 C 86 % 1024,9 hPa 0,0 l/m 0 min 0 min 111 W/m 3,2 km/h (1 Bft) 100,00 %
26.06.2019 08:42 23,3 C 28,3 C 27,8 C 85 % 1024,9 hPa 0,0 l/m 0 min 0 min 113 W/m 12,9 km/h (3 Bft) 97,87 %
26.06.2019 08:44 23,4 C 28,3 C 28,3 C 85 % 1024,9 hPa 0,0 l/m 0 min 0 min 114 W/m 9,7 km/h (2 Bft) 97,83 %
26.06.2019 08:46 23,5 C 28,3 C 28,3 C 84 % 1024,9 hPa 0,0 l/m 0 min 0 min 116 W/m 6,4 km/h (2 Bft) 100,00 %
26.06.2019 08:48 23,6 C 28,3 C 28,3 C 85 % 1024,9 hPa 0,0 l/m 0 min 0 min 117 W/m 6,4 km/h (2 Bft) 97,87 %
26.06.2019 08:50 23,7 C 28,3 C 28,3 C 84 % 1024,9 hPa 0,0 l/m 0 min 0 min 119 W/m 6,4 km/h (2 Bft) 95,74 %
26.06.2019 08:52 23,8 C 28,9 C 28,9 C 84 % 1024,9 hPa 0,0 l/m 0 min 0 min 121 W/m 12,9 km/h (3 Bft) 93,62 %
26.06.2019 08:54 23,9 C 28,9 C 28,9 C 84 % 1024,9 hPa 0,0 l/m 0 min 0 min 122 W/m 9,7 km/h (2 Bft) 97,87 %
26.06.2019 08:56 23,9 C 28,9 C 28,9 C 83 % 1024,9 hPa 0,0 l/m 0 min 0 min 128 W/m 3,2 km/h (1 Bft) 95,65 %
26.06.2019 08:58 24,0 C 29,4 C 28,9 C 83 % 1024,9 hPa 0,0 l/m 0 min 0 min 138 W/m 9,7 km/h (2 Bft) 95,74 %
26.06.2019 09:00 24,1 C 28,9 C 28,9 C 83 % 1024,9 hPa 0,0 l/m 0 min 0 min 153 W/m 9,7 km/h (2 Bft) 93,62 %
26.06.2019 09:02 24,2 C 28,9 C 28,9 C 82 % 1024,9 hPa 0,0 l/m 0 min 0 min 173 W/m 9,7 km/h (2 Bft) 93,62 %
26.06.2019 09:04 24,2 C 28,9 C 28,9 C 82 % 1024,8 hPa 0,0 l/m 0 min 0 min 192 W/m 6,4 km/h (2 Bft) 97,87 %
26.06.2019 09:06 24,3 C 28,9 C 29,4 C 82 % 1024,9 hPa 0,0 l/m 0 min 0 min 222 W/m 9,7 km/h (2 Bft) 95,65 %
26.06.2019 09:08 24,4 C 29,4 C 29,4 C 82 % 1024,9 hPa 0,0 l/m 0 min 0 min 257 W/m 6,4 km/h (2 Bft) 95,74 %
26.06.2019 09:10 24,4 C 29,4 C 29,4 C 81 % 1024,9 hPa 0,0 l/m 2 min 0 min 287 W/m 9,7 km/h (2 Bft) 95,74 %
26.06.2019 09:12 24,5 C 29,4 C 30,0 C 81 % 1024,8 hPa 0,0 l/m 2 min 0 min 316 W/m 3,2 km/h (1 Bft) 97,87 %
26.06.2019 09:14 24,6 C 29,4 C 29,4 C 81 % 1024,8 hPa 0,0 l/m 2 min 0 min 350 W/m 3,2 km/h (1 Bft) 97,87 %
26.06.2019 09:16 24,7 C 30,0 C 30,0 C 80 % 1024,8 hPa 0,0 l/m 2 min 0 min 381 W/m 9,7 km/h (2 Bft) 95,74 %
26.06.2019 09:18 24,7 C 30,0 C 30,0 C 80 % 1024,9 hPa 0,0 l/m 2 min 0 min 404 W/m 6,4 km/h (2 Bft) 91,49 %
26.06.2019 09:20 24,8 C 30,0 C 29,4 C 80 % 1024,9 hPa 0,0 l/m 2 min 0 min 425 W/m 9,7 km/h (2 Bft) 95,65 %
26.06.2019 09:22 24,8 C 30,0 C 29,4 C 80 % 1024,9 hPa 0,0 l/m 2 min 0 min 440 W/m 6,4 km/h (2 Bft) 95,74 %
26.06.2019 09:24 24,9 C 30,0 C 29,4 C 80 % 1024,9 hPa 0,0 l/m 2 min 0 min 452 W/m 9,7 km/h (2 Bft) 95,74 %
26.06.2019 09:26 24,9 C 30,0 C 30,0 C 80 % 1024,9 hPa 0,0 l/m 2 min 0 min 459 W/m 6,4 km/h (2 Bft) 95,74 %
26.06.2019 09:28 25,0 C 30,0 C 30,0 C 79 % 1024,9 hPa 0,0 l/m 2 min 0 min 466 W/m 6,4 km/h (2 Bft) 95,74 %
26.06.2019 09:30 25,1 C 30,6 C 30,0 C 79 % 1024,9 hPa 0,0 l/m 2 min 0 min 478 W/m 12,9 km/h (3 Bft) 93,48 %
26.06.2019 09:32 25,1 C 30,6 C 30,0 C 79 % 1024,9 hPa 0,0 l/m 2 min 0 min 477 W/m 12,9 km/h (3 Bft) 97,87 %
26.06.2019 09:34 25,1 C 30,6 C 30,6 C 79 % 1024,9 hPa 0,0 l/m 2 min 0 min 484 W/m 6,4 km/h (2 Bft) 97,87 %
26.06.2019 09:36 25,2 C 30,6 C 30,6 C 79 % 1024,9 hPa 0,0 l/m 2 min 0 min 489 W/m 9,7 km/h (2 Bft) 97,87 %
26.06.2019 09:38 25,3 C 30,6 C 30,0 C 78 % 1024,9 hPa 0,0 l/m 2 min 0 min 491 W/m 6,4 km/h (2 Bft) 97,87 %
26.06.2019 09:40 25,3 C 31,1 C 31,1 C 78 % 1024,9 hPa 0,0 l/m 2 min 0 min 508 W/m 16,1 km/h (3 Bft) 93,62 %
26.06.2019 09:42 25,4 C 31,7 C 31,1 C 78 % 1025,0 hPa 0,0 l/m 2 min 0 min 511 W/m 9,7 km/h (2 Bft) 95,65 %
26.06.2019 09:44 25,5 C 31,1 C 31,1 C 78 % 1025,0 hPa 0,0 l/m 2 min 0 min 515 W/m 6,4 km/h (2 Bft) 95,74 %
26.06.2019 09:46 25,6 C 31,1 C 31,1 C 78 % 1025,0 hPa 0,0 l/m 2 min 0 min 524 W/m 9,7 km/h (2 Bft) 97,87 %
26.06.2019 09:48 25,6 C 31,7 C 31,1 C 77 % 1025,0 hPa 0,0 l/m 2 min 0 min 529 W/m 9,7 km/h (2 Bft) 97,87 %
26.06.2019 09:50 25,7 C 31,1 C 31,1 C 77 % 1025,0 hPa 0,0 l/m 2 min 0 min 532 W/m 6,4 km/h (2 Bft) 95,74 %
26.06.2019 09:52 25,7 C 31,7 C 31,1 C 77 % 1025,0 hPa 0,0 l/m 2 min 0 min 535 W/m 9,7 km/h (2 Bft) 97,87 %
26.06.2019 09:54 25,8 C 31,7 C 31,1 C 77 % 1025,0 hPa 0,0 l/m 2 min 0 min 544 W/m 12,9 km/h (3 Bft) 97,83 %
26.06.2019 09:56 25,8 C 31,1 C 30,6 C 76 % 1025,0 hPa 0,0 l/m 2 min 0 min 551 W/m 9,7 km/h (2 Bft) 97,87 %
26.06.2019 09:58 25,8 C 31,1 C 31,1 C 77 % 1025,0 hPa 0,0 l/m 2 min 0 min 554 W/m 6,4 km/h (2 Bft) 95,74 %
26.06.2019 10:00 25,8 C 30,6 C 30,6 C 76 % 1025,0 hPa 0,0 l/m 2 min 0 min 558 W/m 6,4 km/h (2 Bft) 97,87 %
26.06.2019 10:02 25,8 C 30,6 C 30,6 C 76 % 1025,0 hPa 0,0 l/m 2 min 0 min 559 W/m 6,4 km/h (2 Bft) 93,62 %
26.06.2019 10:04 25,8 C 30,6 C 30,6 C 77 % 1025,0 hPa 0,0 l/m 2 min 0 min 572 W/m 3,2 km/h (1 Bft) 97,87 %
26.06.2019 10:06 25,8 C 31,1 C 31,1 C 76 % 1025,0 hPa 0,0 l/m 2 min 0 min 572 W/m 9,7 km/h (2 Bft) 97,83 %
26.06.2019 10:08 25,8 C 31,7 C 31,1 C 77 % 1025,0 hPa 0,0 l/m 2 min 0 min 568 W/m 6,4 km/h (2 Bft) 97,87 %
26.06.2019 10:10 25,8 C 31,1 C 31,1 C 76 % 1024,9 hPa 0,0 l/m 2 min 0 min 579 W/m 9,7 km/h (2 Bft) 97,87 %
26.06.2019 10:12 25,9 C 31,7 C 31,7 C 77 % 1025,0 hPa 0,0 l/m 2 min 0 min 587 W/m 6,4 km/h (2 Bft) 95,74 %
26.06.2019 10:14 25,9 C 31,1 C 31,7 C 76 % 1025,0 hPa 0,0 l/m 2 min 0 min 594 W/m 9,7 km/h (2 Bft) 95,74 %
26.06.2019 10:16 25,9 C 32,2 C 32,2 C 77 % 1025,0 hPa 0,0 l/m 2 min 0 min 598 W/m 9,7 km/h (2 Bft) 97,83 %
26.06.2019 10:18 26,0 C 32,8 C 32,2 C 76 % 1024,9 hPa 0,0 l/m 2 min 0 min 602 W/m 6,4 km/h (2 Bft) 97,87 %
26.06.2019 10:20 26,1 C 32,8 C 32,8 C 77 % 1024,9 hPa 0,0 l/m 2 min 0 min 608 W/m 9,7 km/h (2 Bft) 97,87 %
26.06.2019 10:22 26,2 C 32,8 C 32,2 C 77 % 1024,9 hPa 0,0 l/m 2 min 0 min 602 W/m 6,4 km/h (2 Bft) 97,87 %
26.06.2019 10:24 26,2 C 32,2 C 32,2 C 76 % 1024,9 hPa 0,0 l/m 2 min 0 min 613 W/m 12,9 km/h (3 Bft) 97,87 %
26.06.2019 10:26 26,3 C 32,2 C 32,2 C 75 % 1024,9 hPa 0,0 l/m 2 min 0 min 611 W/m 16,1 km/h (3 Bft) 97,87 %
26.06.2019 10:28 26,3 C 32,2 C 32,2 C 75 % 1024,9 hPa 0,0 l/m 2 min 0 min 628 W/m 9,7 km/h (2 Bft) 97,83 %
26.06.2019 10:30 26,4 C 32,8 C 32,8 C 75 % 1025,0 hPa 0,0 l/m 2 min 0 min 639 W/m 6,4 km/h (2 Bft) 95,74 %
26.06.2019 10:32 26,4 C 32,8 C 32,8 C 75 % 1025,0 hPa 0,0 l/m 2 min 0 min 643 W/m 6,4 km/h (2 Bft) 97,87 %
26.06.2019 10:34 26,5 C 32,2 C 32,2 C 74 % 1025,0 hPa 0,0 l/m 2 min 0 min 645 W/m 9,7 km/h (2 Bft) 97,87 %
26.06.2019 10:36 26,5 C 32,2 C 32,2 C 74 % 1024,9 hPa 0,0 l/m 2 min 0 min 643 W/m 12,9 km/h (3 Bft) 95,74 %
26.06.2019 10:38 26,6 C 32,8 C 32,2 C 75 % 1024,9 hPa 0,0 l/m 2 min 0 min 662 W/m 9,7 km/h (2 Bft) 97,87 %
26.06.2019 10:40 26,7 C 33,9 C 33,3 C 76 % 1025,0 hPa 0,0 l/m 2 min 0 min 666 W/m 3,2 km/h (1 Bft) 97,83 %
26.06.2019 10:42 26,8 C 32,8 C 32,8 C 75 % 1024,9 hPa 0,0 l/m 2 min 0 min 666 W/m 9,7 km/h (2 Bft) 97,87 %
26.06.2019 10:44 26,8 C 33,9 C 33,3 C 75 % 1024,8 hPa 0,0 l/m 2 min 0 min 665 W/m 6,4 km/h (2 Bft) 97,87 %
26.06.2019 10:46 26,9 C 33,9 C 33,3 C 74 % 1024,9 hPa 0,0 l/m 2 min 0 min 671 W/m 6,4 km/h (2 Bft) 97,87 %
26.06.2019 10:48 27,0 C 33,9 C 33,3 C 74 % 1025,0 hPa 0,0 l/m 2 min 0 min 677 W/m 9,7 km/h (2 Bft) 97,87 %
26.06.2019 10:50 27,0 C 32,8 C 32,8 C 73 % 1025,0 hPa 0,0 l/m 2 min 0 min 682 W/m 6,4 km/h (2 Bft) 97,87 %
26.06.2019 10:52 27,0 C 32,8 C 32,2 C 73 % 1024,9 hPa 0,0 l/m 2 min 0 min 688 W/m 6,4 km/h (2 Bft) 97,83 %
26.06.2019 10:54 27,1 C 32,8 C 32,8 C 74 % 1024,9 hPa 0,0 l/m 2 min 0 min 700 W/m 6,4 km/h (2 Bft) 95,74 %
26.06.2019 10:56 27,1 C 33,9 C 33,3 C 73 % 1024,8 hPa 0,0 l/m 2 min 0 min 701 W/m 6,4 km/h (2 Bft) 97,87 %
26.06.2019 10:58 27,2 C 34,4 C 33,9 C 74 % 1024,9 hPa 0,0 l/m 2 min 0 min 703 W/m 3,2 km/h (1 Bft) 97,87 %
26.06.2019 11:00 27,3 C 33,9 C 33,9 C 74 % 1024,8 hPa 0,0 l/m 2 min 0 min 707 W/m 12,9 km/h (3 Bft) 97,87 %
26.06.2019 11:02 27,4 C 34,4 C 34,4 C 74 % 1024,8 hPa 0,0 l/m 2 min 0 min 707 W/m 6,4 km/h (2 Bft) 97,87 %
26.06.2019 11:04 27,4 C 33,9 C 34,4 C 73 % 1024,8 hPa 0,0 l/m 2 min 0 min 714 W/m 9,7 km/h (2 Bft) 95,65 %
26.06.2019 11:06 27,5 C 34,4 C 34,4 C 72 % 1024,8 hPa 0,0 l/m 2 min 0 min 720 W/m 6,4 km/h (2 Bft) 97,87 %
26.06.2019 11:08 27,6 C 35,0 C 35,0 C 72 % 1024,8 hPa 0,0 l/m 2 min 0 min 728 W/m 6,4 km/h (2 Bft) 97,87 %
26.06.2019 11:10 27,7 C 34,4 C 34,4 C 71 % 1024,8 hPa 0,0 l/m 2 min 0 min 725 W/m 12,9 km/h (3 Bft) 97,87 %
26.06.2019 11:12 27,7 C 35,6 C 35,0 C 72 % 1024,7 hPa 0,0 l/m 2 min 0 min 735 W/m 6,4 km/h (2 Bft) 100,00 %
26.06.2019 11:14 27,9 C 35,6 C 35,6 C 72 % 1024,8 hPa 0,0 l/m 2 min 0 min 744 W/m 6,4 km/h (2 Bft) 100,00 %
26.06.2019 11:16 28,0 C 35,0 C 35,0 C 73 % 1024,8 hPa 0,0 l/m 2 min 0 min 738 W/m 9,7 km/h (2 Bft) 97,83 %
26.06.2019 11:18 28,0 C 33,9 C 33,3 C 71 % 1024,7 hPa 0,0 l/m 2 min 0 min 745 W/m 6,4 km/h (2 Bft) 97,87 %
26.06.2019 11:20 27,9 C 33,3 C 33,3 C 71 % 1024,7 hPa 0,0 l/m 2 min 0 min 754 W/m 6,4 km/h (2 Bft) 100,00 %
26.06.2019 11:22 28,0 C 33,9 C 33,9 C 72 % 1024,7 hPa 0,0 l/m 2 min 0 min 752 W/m 9,7 km/h (2 Bft) 97,87 %
26.06.2019 11:24 28,0 C 33,9 C 33,9 C 71 % 1024,8 hPa 0,0 l/m 2 min 0 min 753 W/m 9,7 km/h (2 Bft) 95,74 %
26.06.2019 11:26 27,9 C 33,9 C 33,9 C 71 % 1024,8 hPa 0,0 l/m 2 min 0 min 757 W/m 12,9 km/h (3 Bft) 97,87 %
26.06.2019 11:28 28,0 C 33,3 C 33,3 C 71 % 1024,8 hPa 0,0 l/m 2 min 0 min 758 W/m 12,9 km/h (3 Bft) 97,83 %
26.06.2019 11:30 28,0 C 33,3 C 33,3 C 72 % 1024,8 hPa 0,0 l/m 2 min 0 min 749 W/m 6,4 km/h (2 Bft) 97,87 %
26.06.2019 11:32 28,0 C 34,4 C 34,4 C 72 % 1024,8 hPa 0,0 l/m 2 min 0 min 755 W/m 6,4 km/h (2 Bft) 97,87 %
26.06.2019 11:34 28,1 C 35,0 C 34,4 C 72 % 1024,7 hPa 0,0 l/m 2 min 0 min 756 W/m 6,4 km/h (2 Bft) 97,87 %
26.06.2019 11:36 28,2 C 35,6 C 35,0 C 72 % 1024,7 hPa 0,0 l/m 2 min 0 min 776 W/m 6,4 km/h (2 Bft) 97,87 %
26.06.2019 11:38 28,2 C 34,4 C 35,0 C 71 % 1024,7 hPa 0,0 l/m 2 min 0 min 764 W/m 6,4 km/h (2 Bft) 95,65 %
26.06.2019 11:40 28,2 C 33,9 C 33,9 C 71 % 1024,7 hPa 0,0 l/m 2 min 0 min 766 W/m 3,2 km/h (1 Bft) 97,87 %
26.06.2019 11:42 28,3 C 35,0 C 34,4 C 72 % 1024,8 hPa 0,0 l/m 2 min 0 min 765 W/m 9,7 km/h (2 Bft) 97,87 %
26.06.2019 11:44 28,3 C 35,6 C 34,4 C 71 % 1024,7 hPa 0,0 l/m 2 min 0 min 772 W/m 12,9 km/h (3 Bft) 97,87 %
26.06.2019 11:46 28,3 C 35,6 C 35,0 C 70 % 1024,8 hPa 0,0 l/m 2 min 0 min 785 W/m 6,4 km/h (2 Bft) 95,74 %
26.06.2019 11:48 28,4 C 35,6 C 35,0 C 70 % 1024,8 hPa 0,0 l/m 2 min 0 min 801 W/m 6,4 km/h (2 Bft) 97,87 %
26.06.2019 11:50 28,4 C 35,0 C 34,4 C 71 % 1024,7 hPa 0,0 l/m 2 min 0 min 795 W/m 9,7 km/h (2 Bft) 95,65 %
26.06.2019 11:52 28,5 C 36,1 C 35,0 C 71 % 1024,6 hPa 0,0 l/m 2 min 0 min 797 W/m 6,4 km/h (2 Bft) 97,87 %
26.06.2019 11:54 28,6 C 36,7 C 35,6 C 71 % 1024,7 hPa 0,0 l/m 2 min 0 min 791 W/m 9,7 km/h (2 Bft) 95,74 %
26.06.2019 11:56 28,7 C 36,7 C 35,6 C 69 % 1024,7 hPa 0,0 l/m 2 min 0 min 804 W/m 9,7 km/h (2 Bft) 97,87 %
26.06.2019 11:58 28,8 C 35,6 C 35,6 C 69 % 1024,7 hPa 0,0 l/m 2 min 0 min 812 W/m 9,7 km/h (2 Bft) 97,87 %
26.06.2019 12:00 28,8 C 36,1 C 35,0 C 70 % 1024,7 hPa 0,0 l/m 2 min 0 min 806 W/m 9,7 km/h (2 Bft) 97,87 %
26.06.2019 12:02 28,8 C 35,0 C 35,0 C 69 % 1024,6 hPa 0,0 l/m 2 min 0 min 795 W/m 16,1 km/h (3 Bft) 97,83 %
26.06.2019 12:04 28,8 C 35,0 C 35,6 C 69 % 1024,8 hPa 0,0 l/m 2 min 0 min 813 W/m 9,7 km/h (2 Bft) 95,74 %
26.06.2019 12:08 28,9 C 35,0 C 35,0 C 68 % 1024,7 hPa 0,0 l/m 4 min 0 min 824 W/m 12,9 km/h (3 Bft) 95,74 %
26.06.2019 12:10 28,9 C 35,0 C 35,0 C 68 % 1024,8 hPa 0,0 l/m 2 min 0 min 813 W/m 9,7 km/h (2 Bft) 100,00 %
26.06.2019 12:12 28,9 C 35,6 C 35,0 C 69 % 1024,8 hPa 0,0 l/m 2 min 0 min 815 W/m 6,4 km/h (2 Bft) 97,87 %
26.06.2019 12:14 28,9 C 35,6 C 35,0 C 68 % 1024,8 hPa 0,0 l/m 2 min 0 min 831 W/m 6,4 km/h (2 Bft) 97,83 %
26.06.2019 12:16 28,9 C 35,0 C 35,0 C 68 % 1024,9 hPa 0,0 l/m 2 min 0 min 834 W/m 16,1 km/h (3 Bft) 93,62 %
26.06.2019 12:18 28,9 C 35,0 C 35,0 C 69 % 1024,9 hPa 0,0 l/m 2 min 0 min 829 W/m 12,9 km/h (3 Bft) 97,87 %
26.06.2019 12:20 28,9 C 34,4 C 34,4 C 68 % 1024,9 hPa 0,0 l/m 2 min 0 min 848 W/m 16,1 km/h (3 Bft) 97,87 %
26.06.2019 12:22 28,7 C 34,4 C 35,0 C 69 % 1025,0 hPa 0,0 l/m 2 min 0 min 847 W/m 6,4 km/h (2 Bft) 97,87 %
26.06.2019 12:24 28,7 C 34,4 C 35,6 C 70 % 1024,9 hPa 0,0 l/m 2 min 0 min 836 W/m 9,7 km/h (2 Bft) 97,83 %
26.06.2019 12:26 28,7 C 33,9 C 35,0 C 69 % 1024,8 hPa 0,0 l/m 2 min 0 min 837 W/m 6,4 km/h (2 Bft) 100,00 %
26.06.2019 12:28 28,6 C 33,9 C 34,4 C 69 % 1024,8 hPa 0,0 l/m 2 min 0 min 839 W/m 9,7 km/h (2 Bft) 97,87 %
26.06.2019 12:30 28,7 C 34,4 C 35,0 C 70 % 1024,9 hPa 0,0 l/m 2 min 0 min 843 W/m 6,4 km/h (2 Bft) 98,00 %
26.06.2019 12:32 28,7 C 35,6 C 35,6 C 70 % 1024,8 hPa 0,0 l/m 2 min 0 min 854 W/m 9,7 km/h (2 Bft) 95,74 %
26.06.2019 12:34 28,8 C 35,6 C 36,7 C 70 % 1024,8 hPa 0,0 l/m 2 min 0 min 848 W/m 12,9 km/h (3 Bft) 95,74 %
26.06.2019 12:36 28,9 C 35,0 C 36,1 C 69 % 1024,9 hPa 0,0 l/m 2 min 0 min 843 W/m 12,9 km/h (3 Bft) 97,83 %
26.06.2019 12:38 28,9 C 34,4 C 36,1 C 69 % 1025,0 hPa 0,0 l/m 2 min 0 min 852 W/m 9,7 km/h (2 Bft) 97,87 %
26.06.2019 12:40 29,0 C 35,0 C 35,6 C 69 % 1024,8 hPa 0,0 l/m 2 min 0 min 861 W/m 9,7 km/h (2 Bft) 93,62 %
26.06.2019 12:42 29,1 C 36,1 C 36,1 C 69 % 1024,9 hPa 0,0 l/m 2 min 0 min 855 W/m 6,4 km/h (2 Bft) 97,87 %
26.06.2019 12:44 29,2 C 35,6 C 36,1 C 70 % 1024,8 hPa 0,0 l/m 2 min 0 min 850 W/m 9,7 km/h (2 Bft) 97,87 %
26.06.2019 12:46 29,4 C 36,1 C 36,1 C 69 % 1024,9 hPa 0,0 l/m 2 min 0 min 847 W/m 9,7 km/h (2 Bft) 93,62 %
26.06.2019 12:48 29,5 C 36,1 C 36,7 C 70 % 1025,0 hPa 0,0 l/m 2 min 0 min 854 W/m 6,4 km/h (2 Bft) 97,83 %
26.06.2019 12:50 29,6 C 36,7 C 36,7 C 69 % 1025,0 hPa 0,0 l/m 2 min 0 min 861 W/m 9,7 km/h (2 Bft) 97,87 %
26.06.2019 12:52 29,7 C 36,1 C 36,7 C 67 % 1025,0 hPa 0,0 l/m 2 min 0 min 841 W/m 19,3 km/h (3 Bft) 93,62 %
26.06.2019 12:54 29,7 C 35,0 C 36,1 C 67 % 1025,0 hPa 0,0 l/m 2 min 0 min 855 W/m 12,9 km/h (3 Bft) 97,87 %
26.06.2019 12:56 29,8 C 35,6 C 37,2 C 69 % 1025,0 hPa 0,0 l/m 2 min 0 min 855 W/m 9,7 km/h (2 Bft) 95,74 %
26.06.2019 12:58 29,8 C 35,6 C 36,7 C 68 % 1024,9 hPa 0,0 l/m 2 min 0 min 869 W/m 12,9 km/h (3 Bft) 100,00 %
26.06.2019 13:00 29,8 C 36,7 C 37,2 C 67 % 1024,9 hPa 0,0 l/m 2 min 0 min 875 W/m 6,4 km/h (2 Bft) 97,87 %
26.06.2019 13:02 29,8 C 35,6 C 36,7 C 67 % 1024,8 hPa 0,0 l/m 2 min 0 min 870 W/m 9,7 km/h (2 Bft) 100,00 %
26.06.2019 13:04 29,9 C 36,1 C 37,2 C 68 % 1024,7 hPa 0,0 l/m 2 min 0 min 863 W/m 6,4 km/h (2 Bft) 100,00 %
26.06.2019 13:06 30,0 C 36,7 C 37,2 C 69 % 1024,8 hPa 0,0 l/m 2 min 0 min 869 W/m 6,4 km/h (2 Bft) 100,00 %
26.06.2019 13:08 30,1 C 37,2 C 38,3 C 68 % 1024,8 hPa 0,0 l/m 2 min 0 min 878 W/m 6,4 km/h (2 Bft) 100,00 %
26.06.2019 13:10 30,2 C 37,2 C 38,3 C 67 % 1024,8 hPa 0,0 l/m 2 min 0 min 898 W/m 6,4 km/h (2 Bft) 100,00 %
26.06.2019 13:12 30,3 C 36,1 C 37,8 C 66 % 1024,7 hPa 0,0 l/m 2 min 0 min 880 W/m 12,9 km/h (3 Bft) 100,00 %
26.06.2019 13:14 30,3 C 36,7 C 38,3 C 68 % 1024,8 hPa 0,0 l/m 2 min 0 min 869 W/m 9,7 km/h (2 Bft) 100,00 %
26.06.2019 13:16 30,4 C 36,1 C 37,8 C 67 % 1024,8 hPa 0,0 l/m 2 min 0 min 869 W/m 6,4 km/h (2 Bft) 100,00 %
26.06.2019 13:18 30,5 C 36,7 C 37,8 C 66 % 1024,9 hPa 0,0 l/m 2 min 0 min 873 W/m 6,4 km/h (2 Bft) 100,00 %
26.06.2019 13:20 30,6 C 36,7 C 38,3 C 67 % 1024,8 hPa 0,0 l/m 2 min 0 min 867 W/m 6,4 km/h (2 Bft) 100,00 %
26.06.2019 13:22 30,6 C 36,7 C 37,8 C 66 % 1024,8 hPa 0,0 l/m 2 min 0 min 860 W/m 12,9 km/h (3 Bft) 100,00 %
26.06.2019 13:24 30,6 C 36,1 C 37,8 C 64 % 1024,9 hPa 0,0 l/m 2 min 0 min 871 W/m 16,1 km/h (3 Bft) 100,00 %
26.06.2019 13:26 30,6 C 36,7 C 38,3 C 66 % 1024,9 hPa 0,0 l/m 2 min 0 min 862 W/m 6,4 km/h (2 Bft) 100,00 %
26.06.2019 13:28 30,7 C 37,2 C 38,3 C 67 % 1024,9 hPa 0,0 l/m 2 min 0 min 862 W/m 3,2 km/h (1 Bft) 100,00 %
26.06.2019 13:30 30,7 C 37,2 C 37,8 C 67 % 1024,9 hPa 0,0 l/m 2 min 0 min 872 W/m 6,4 km/h (2 Bft) 100,00 %
26.06.2019 13:32 30,7 C 36,1 C 37,2 C 65 % 1025,0 hPa 0,0 l/m 2 min 0 min 863 W/m 16,1 km/h (3 Bft) 97,87 %
26.06.2019 13:34 30,8 C 36,7 C 36,7 C 66 % 1025,0 hPa 0,0 l/m 2 min 0 min 867 W/m 12,9 km/h (3 Bft) 100,00 %
26.06.2019 13:36 30,8 C 36,7 C 36,7 C 65 % 1025,0 hPa 0,0 l/m 2 min 0 min 874 W/m 9,7 km/h (2 Bft) 97,87 %
26.06.2019 13:38 30,8 C 36,7 C 36,7 C 65 % 1025,0 hPa 0,0 l/m 2 min 0 min 882 W/m 6,4 km/h (2 Bft) 100,00 %
26.06.2019 13:40 30,8 C 37,2 C 37,2 C 65 % 1024,9 hPa 0,0 l/m 2 min 0 min 890 W/m 3,2 km/h (1 Bft) 100,00 %
26.06.2019 13:42 30,9 C 37,2 C 37,8 C 66 % 1025,0 hPa 0,0 l/m 2 min 0 min 886 W/m 9,7 km/h (2 Bft) 95,74 %
26.06.2019 13:44 31,0 C 37,2 C 37,8 C 65 % 1025,0 hPa 0,0 l/m 2 min 0 min 874 W/m 6,4 km/h (2 Bft) 97,87 %
26.06.2019 13:46 31,1 C 37,2 C 38,3 C 65 % 1024,9 hPa 0,0 l/m 2 min 0 min 885 W/m 6,4 km/h (2 Bft) 97,83 %
26.06.2019 13:48 31,1 C 37,2 C 38,3 C 65 % 1024,9 hPa 0,0 l/m 2 min 0 min 891 W/m 6,4 km/h (2 Bft) 97,87 %
26.06.2019 13:50 31,1 C 36,1 C 37,8 C 64 % 1025,0 hPa 0,0 l/m 2 min 0 min 874 W/m 9,7 km/h (2 Bft) 97,87 %
26.06.2019 13:52 31,2 C 36,1 C 38,3 C 65 % 1024,9 hPa 0,0 l/m 2 min 0 min 875 W/m 6,4 km/h (2 Bft) 97,87 %
26.06.2019 13:54 31,2 C 36,1 C 37,8 C 66 % 1024,9 hPa 0,0 l/m 2 min 0 min 880 W/m 9,7 km/h (2 Bft) 97,87 %
26.06.2019 13:56 31,3 C 36,1 C 37,2 C 64 % 1024,9 hPa 0,0 l/m 2 min 0 min 881 W/m 9,7 km/h (2 Bft) 95,74 %
26.06.2019 13:58 31,3 C 35,0 C 37,2 C 64 % 1024,9 hPa 0,0 l/m 2 min 0 min 892 W/m 6,4 km/h (2 Bft) 97,83 %
26.06.2019 14:00 31,3 C 36,1 C 37,8 C 65 % 1024,9 hPa 0,0 l/m 2 min 0 min 874 W/m 12,9 km/h (3 Bft) 94,44 %
26.06.2019 14:02 31,4 C 36,1 C 37,8 C 65 % 1024,8 hPa 0,0 l/m 2 min 0 min 883 W/m 9,7 km/h (2 Bft) 93,10 %
26.06.2019 14:04 31,4 C 36,1 C 37,8 C 64 % 1024,8 hPa 0,0 l/m 2 min 0 min 896 W/m 9,7 km/h (2 Bft) 94,29 %
26.06.2019 14:06 31,4 C 36,7 C 37,8 C 64 % 1024,8 hPa 0,0 l/m 2 min 0 min 880 W/m 9,7 km/h (2 Bft) 96,61 %
26.06.2019 14:08 31,4 C 36,1 C 37,2 C 63 % 1024,8 hPa 0,0 l/m 2 min 0 min 889 W/m 16,1 km/h (3 Bft) 94,29 %
26.06.2019 14:10 31,4 C 36,1 C 37,2 C 64 % 1024,8 hPa 0,0 l/m 2 min 0 min 894 W/m 9,7 km/h (2 Bft) 95,74 %
26.06.2019 14:12 31,4 C 36,1 C 37,2 C 64 % 1024,8 hPa 0,0 l/m 2 min 0 min 888 W/m 9,7 km/h (2 Bft) 94,83 %
26.06.2019 14:14 31,4 C 36,1 C 37,2 C 65 % 1024,8 hPa 0,0 l/m 2 min 0 min 884 W/m 6,4 km/h (2 Bft) 97,14 %
26.06.2019 14:16 31,4 C 36,1 C 37,2 C 65 % 1024,8 hPa 0,0 l/m 2 min 0 min 871 W/m 6,4 km/h (2 Bft) 94,92 %
26.06.2019 14:18 31,5 C 36,7 C 37,2 C 65 % 1024,8 hPa 0,0 l/m 2 min 0 min 889 W/m 6,4 km/h (2 Bft) 94,29 %
26.06.2019 14:20 31,6 C 36,7 C 37,8 C 64 % 1024,8 hPa 0,0 l/m 2 min 0 min 885 W/m 9,7 km/h (2 Bft) 93,62 %
26.06.2019 14:22 31,6 C 36,7 C 37,2 C 64 % 1024,7 hPa 0,0 l/m 2 min 0 min 873 W/m 9,7 km/h (2 Bft) 93,62 %
26.06.2019 14:24 31,6 C 36,1 C 37,2 C 64 % 1024,7 hPa 0,0 l/m 2 min 0 min 869 W/m 9,7 km/h (2 Bft) 93,48 %
26.06.2019 14:26 31,6 C 35,6 C 37,2 C 62 % 1024,7 hPa 0,0 l/m 2 min 0 min 853 W/m 19,3 km/h (3 Bft) 96,61 %
26.06.2019 14:28 31,6 C 35,6 C 37,2 C 63 % 1024,8 hPa 0,0 l/m 2 min 0 min 882 W/m 9,7 km/h (2 Bft) 95,74 %
26.06.2019 14:30 31,6 C 36,1 C 37,8 C 63 % 1024,8 hPa 0,0 l/m 2 min 0 min 878 W/m 6,4 km/h (2 Bft) 89,36 %
26.06.2019 14:32 31,7 C 36,7 C 37,8 C 62 % 1024,8 hPa 0,0 l/m 2 min 0 min 881 W/m 9,7 km/h (2 Bft) 93,48 %
26.06.2019 14:34 31,7 C 36,1 C 38,3 C 63 % 1024,8 hPa 0,0 l/m 2 min 0 min 874 W/m 12,9 km/h (3 Bft) 97,22 %
26.06.2019 14:36 31,7 C 36,1 C 38,3 C 64 % 1024,9 hPa 0,0 l/m 2 min 0 min 882 W/m 6,4 km/h (2 Bft) 91,38 %
26.06.2019 14:38 31,7 C 36,1 C 38,3 C 65 % 1024,8 hPa 0,0 l/m 2 min 0 min 879 W/m 3,2 km/h (1 Bft) 93,62 %
26.06.2019 14:40 31,8 C 36,7 C 38,3 C 64 % 1024,8 hPa 0,0 l/m 2 min 0 min 868 W/m 6,4 km/h (2 Bft) 94,29 %
26.06.2019 14:42 31,8 C 36,7 C 38,3 C 65 % 1024,8 hPa 0,0 l/m 2 min 0 min 861 W/m 9,7 km/h (2 Bft) 93,22 %
26.06.2019 14:44 31,9 C 35,6 C 37,8 C 63 % 1024,8 hPa 0,0 l/m 2 min 0 min 859 W/m 12,9 km/h (3 Bft) 94,12 %
26.06.2019 14:46 31,9 C 36,1 C 37,2 C 65 % 1024,8 hPa 0,0 l/m 2 min 0 min 857 W/m 9,7 km/h (2 Bft) 91,49 %
26.06.2019 14:48 31,9 C 36,1 C 36,7 C 63 % 1024,8 hPa 0,0 l/m 2 min 0 min 864 W/m 9,7 km/h (2 Bft) 93,10 %
26.06.2019 14:50 31,9 C 36,1 C 36,7 C 63 % 1024,8 hPa 0,0 l/m 2 min 0 min 868 W/m 6,4 km/h (2 Bft) 93,62 %
26.06.2019 14:52 31,9 C 35,6 C 35,6 C 64 % 1024,8 hPa 0,0 l/m 2 min 0 min 853 W/m 6,4 km/h (2 Bft) 94,29 %
26.06.2019 14:54 31,9 C 36,1 C 36,1 C 63 % 1024,7 hPa 0,0 l/m 2 min 0 min 864 W/m 6,4 km/h (2 Bft) 96,61 %
26.06.2019 14:56 32,0 C 36,7 C 35,0 C 63 % 1024,8 hPa 0,0 l/m 2 min 0 min 856 W/m 6,4 km/h (2 Bft) 91,43 %
26.06.2019 14:58 32,1 C 36,1 C 33,9 C 64 % 1024,8 hPa 0,0 l/m 2 min 0 min 863 W/m 6,4 km/h (2 Bft) 91,30 %
26.06.2019 15:00 32,1 C 36,1 C 33,3 C 64 % 1024,7 hPa 0,0 l/m 2 min 0 min 849 W/m 3,2 km/h (1 Bft) 97,87 %
26.06.2019 15:02 32,1 C 35,6 C 32,8 C 63 % 1024,7 hPa 0,0 l/m 2 min 0 min 842 W/m 9,7 km/h (2 Bft) 96,61 %
26.06.2019 15:04 32,1 C 35,0 C 32,2 C 63 % 1024,7 hPa 0,0 l/m 2 min 0 min 844 W/m 9,7 km/h (2 Bft) 97,87 %
26.06.2019 15:06 32,1 C 35,0 C 32,2 C 62 % 1024,7 hPa 0,0 l/m 2 min 0 min 852 W/m 12,9 km/h (3 Bft) 100,00 %
26.06.2019 15:08 32,1 C 35,0 C 31,7 C 64 % 1024,7 hPa 0,0 l/m 2 min 0 min 855 W/m 6,4 km/h (2 Bft) 93,62 %
26.06.2019 15:10 32,0 C 35,0 C 31,7 C 63 % 1024,7 hPa 0,0 l/m 2 min 0 min 852 W/m 9,7 km/h (2 Bft) 98,28 %
26.06.2019 15:12 32,0 C 35,0 C 31,1 C 64 % 1024,7 hPa 0,0 l/m 2 min 0 min 848 W/m 16,1 km/h (3 Bft) 100,00 %
26.06.2019 15:14 32,0 C 35,0 C 31,1 C 63 % 1024,8 hPa 0,0 l/m 2 min 0 min 850 W/m 9,7 km/h (2 Bft) 100,00 %
26.06.2019 15:16 32,0 C 34,4 C 31,1 C 61 % 1024,8 hPa 0,0 l/m 2 min 0 min 842 W/m 19,3 km/h (3 Bft) 98,31 %
26.06.2019 15:18 31,9 C 34,4 C 31,1 C 62 % 1024,8 hPa 0,0 l/m 2 min 0 min 843 W/m 6,4 km/h (2 Bft) 100,00 %
26.06.2019 15:20 31,9 C 35,0 C 31,1 C 63 % 1024,8 hPa 0,0 l/m 2 min 0 min 840 W/m 6,4 km/h (2 Bft) 97,22 %
26.06.2019 15:22 31,9 C 35,0 C 30,6 C 62 % 1024,8 hPa 0,0 l/m 2 min 0 min 835 W/m 12,9 km/h (3 Bft) 96,55 %
26.06.2019 15:24 31,9 C 34,4 C 31,1 C 62 % 1024,8 hPa 0,0 l/m 2 min 0 min 834 W/m 12,9 km/h (3 Bft) 100,00 %
26.06.2019 15:26 31,9 C 33,9 C 31,1 C 63 % 1024,8 hPa 0,0 l/m 2 min 0 min 832 W/m 12,9 km/h (3 Bft) 100,00 %
26.06.2019 15:28 31,9 C 34,4 C 31,1 C 64 % 1024,8 hPa 0,0 l/m 2 min 0 min 812 W/m 6,4 km/h (2 Bft) 98,31 %
26.06.2019 15:30 31,9 C 34,4 C 31,1 C 65 % 1024,9 hPa 0,0 l/m 2 min 0 min 811 W/m 6,4 km/h (2 Bft) 100,00 %
26.06.2019 15:32 31,9 C 33,9 C 31,1 C 63 % 1024,8 hPa 0,0 l/m 2 min 0 min 796 W/m 12,9 km/h (3 Bft) 100,00 %
26.06.2019 15:34 31,9 C 33,9 C 31,1 C 62 % 1024,9 hPa 0,0 l/m 2 min 0 min 815 W/m 12,9 km/h (3 Bft) 100,00 %
26.06.2019 15:36 31,9 C 34,4 C 31,1 C 63 % 1024,9 hPa 0,0 l/m 2 min 0 min 798 W/m 6,4 km/h (2 Bft) 97,87 %
26.06.2019 15:38 31,9 C 33,9 C 31,1 C 63 % 1024,9 hPa 0,0 l/m 2 min 0 min 796 W/m 9,7 km/h (2 Bft) 100,00 %
26.06.2019 15:40 31,9 C 34,4 C 31,1 C 63 % 1024,9 hPa 0,0 l/m 2 min 0 min 799 W/m 6,4 km/h (2 Bft) 100,00 %
26.06.2019 15:42 31,9 C 33,9 C 31,1 C 64 % 1024,9 hPa 0,0 l/m 2 min 0 min 786 W/m 9,7 km/h (2 Bft) 100,00 %
26.06.2019 15:44 31,9 C 33,3 C 31,1 C 63 % 1024,8 hPa 0,0 l/m 2 min 0 min 792 W/m 16,1 km/h (3 Bft) 100,00 %
26.06.2019 15:46 31,9 C 33,3 C 31,1 C 63 % 1024,9 hPa 0,0 l/m 2 min 0 min 795 W/m 9,7 km/h (2 Bft) 100,00 %
26.06.2019 15:48 31,9 C 33,3 C 31,1 C 64 % 1024,8 hPa 0,0 l/m 2 min 0 min 788 W/m 6,4 km/h (2 Bft) 97,87 %
26.06.2019 15:50 31,9 C 33,9 C 31,1 C 64 % 1024,8 hPa 0,0 l/m 2 min 0 min 774 W/m 9,7 km/h (2 Bft) 100,00 %
26.06.2019 15:52 32,0 C 33,9 C 31,1 C 64 % 1024,8 hPa 0,0 l/m 2 min 0 min 786 W/m 12,9 km/h (3 Bft) 97,87 %
26.06.2019 15:54 32,1 C 33,3 C 31,1 C 62 % 1024,8 hPa 0,0 l/m 2 min 0 min 756 W/m 12,9 km/h (3 Bft) 97,87 %
26.06.2019 15:56 32,1 C 33,3 C 31,1 C 63 % 1024,9 hPa 0,0 l/m 2 min 0 min 764 W/m 3,2 km/h (1 Bft) 97,87 %
26.06.2019 15:58 32,1 C 32,8 C 31,1 C 63 % 1024,8 hPa 0,0 l/m 2 min 0 min 755 W/m 12,9 km/h (3 Bft) 97,83 %
26.06.2019 16:00 32,1 C 32,8 C 31,7 C 63 % 1024,8 hPa 0,0 l/m 2 min 0 min 761 W/m 9,7 km/h (2 Bft) 100,00 %
26.06.2019 16:02 32,1 C 32,8 C 31,7 C 62 % 1024,8 hPa 0,0 l/m 2 min 0 min 773 W/m 12,9 km/h (3 Bft) 100,00 %
26.06.2019 16:04 32,1 C 33,3 C 31,7 C 63 % 1024,8 hPa 0,0 l/m 2 min 0 min 764 W/m 6,4 km/h (2 Bft) 100,00 %
26.06.2019 16:06 32,2 C 33,3 C 31,1 C 63 % 1024,8 hPa 0,0 l/m 2 min 0 min 756 W/m 9,7 km/h (2 Bft) 100,00 %
26.06.2019 16:08 32,2 C 32,8 C 31,1 C 61 % 1024,7 hPa 0,0 l/m 2 min 0 min 765 W/m 12,9 km/h (3 Bft) 97,87 %
26.06.2019 16:10 32,2 C 32,8 C 30,6 C 63 % 1024,7 hPa 0,0 l/m 2 min 0 min 749 W/m 6,4 km/h (2 Bft) 100,00 %
26.06.2019 16:12 32,2 C 32,8 C 31,1 C 62 % 1024,7 hPa 0,0 l/m 2 min 0 min 747 W/m 6,4 km/h (2 Bft) 97,87 %
26.06.2019 16:14 32,2 C 32,2 C 31,1 C 61 % 1024,7 hPa 0,0 l/m 2 min 0 min 754 W/m 12,9 km/h (3 Bft) 100,00 %
26.06.2019 16:16 32,2 C 31,7 C 31,1 C 61 % 1024,7 hPa 0,0 l/m 2 min 0 min 744 W/m 12,9 km/h (3 Bft) 100,00 %
26.06.2019 16:18 32,2 C 31,1 C 31,1 C 60 % 1024,7 hPa 0,0 l/m 2 min 0 min 732 W/m 25,7 km/h (4 Bft) 100,00 %
26.06.2019 16:20 32,1 C 31,7 C 31,1 C 62 % 1024,6 hPa 0,0 l/m 2 min 0 min 742 W/m 16,1 km/h (3 Bft) 100,00 %
26.06.2019 16:22 32,1 C 31,7 C 31,1 C 63 % 1024,6 hPa 0,0 l/m 2 min 0 min 742 W/m 12,9 km/h (3 Bft) 97,87 %
26.06.2019 16:24 32,1 C 31,7 C 31,1 C 63 % 1024,6 hPa 0,0 l/m 2 min 0 min 730 W/m 6,4 km/h (2 Bft) 100,00 %
26.06.2019 16:26 32,1 C 31,7 C 31,1 C 62 % 1024,6 hPa 0,0 l/m 2 min 0 min 723 W/m 12,9 km/h (3 Bft) 100,00 %
26.06.2019 16:28 32,1 C 31,7 C 31,1 C 61 % 1024,6 hPa 0,0 l/m 2 min 0 min 718 W/m 12,9 km/h (3 Bft) 100,00 %
26.06.2019 16:30 32,2 C 31,7 C 32,2 C 62 % 1024,6 hPa 0,0 l/m 2 min 0 min 716 W/m 9,7 km/h (2 Bft) 97,87 %
26.06.2019 16:32 32,2 C 31,7 C 32,8 C 62 % 1024,6 hPa 0,0 l/m 2 min 0 min 708 W/m 9,7 km/h (2 Bft) 97,83 %
26.06.2019 16:34 32,2 C 31,7 C 32,8 C 63 % 1024,5 hPa 0,0 l/m 2 min 0 min 693 W/m 6,4 km/h (2 Bft) 97,87 %
26.06.2019 16:36 32,2 C 31,7 C 32,2 C 63 % 1024,6 hPa 0,0 l/m 2 min 0 min 688 W/m 12,9 km/h (3 Bft) 100,00 %
26.06.2019 16:38 32,2 C 32,2 C 32,2 C 63 % 1024,6 hPa 0,0 l/m 2 min 0 min 697 W/m 6,4 km/h (2 Bft) 97,87 %
26.06.2019 16:40 32,2 C 31,7 C 31,7 C 62 % 1024,5 hPa 0,0 l/m 2 min 0 min 696 W/m 19,3 km/h (3 Bft) 97,87 %
26.06.2019 16:42 32,2 C 31,1 C 31,7 C 62 % 1024,5 hPa 0,0 l/m 2 min 0 min 682 W/m 12,9 km/h (3 Bft) 97,87 %
26.06.2019 16:44 32,2 C 31,7 C 31,7 C 62 % 1024,5 hPa 0,0 l/m 2 min 0 min 673 W/m 9,7 km/h (2 Bft) 100,00 %
26.06.2019 16:46 32,2 C 31,7 C 31,1 C 62 % 1024,4 hPa 0,0 l/m 2 min 0 min 676 W/m 9,7 km/h (2 Bft) 100,00 %
26.06.2019 16:48 32,3 C 32,2 C 30,6 C 63 % 1024,5 hPa 0,0 l/m 2 min 0 min 672 W/m 9,7 km/h (2 Bft) 95,74 %
26.06.2019 16:50 32,3 C 31,7 C 30,6 C 61 % 1024,5 hPa 0,0 l/m 2 min 0 min 675 W/m 12,9 km/h (3 Bft) 97,87 %
26.06.2019 16:52 32,3 C 31,7 C 31,1 C 62 % 1024,4 hPa 0,0 l/m 2 min 0 min 681 W/m 16,1 km/h (3 Bft) 95,74 %
26.06.2019 16:54 32,3 C 31,7 C 31,1 C 62 % 1024,4 hPa 0,0 l/m 2 min 0 min 664 W/m 12,9 km/h (3 Bft) 97,87 %
26.06.2019 16:56 32,3 C 31,7 C 31,1 C 62 % 1024,4 hPa 0,0 l/m 2 min 0 min 664 W/m 16,1 km/h (3 Bft) 97,83 %
26.06.2019 16:58 32,3 C 31,7 C 31,1 C 60 % 1024,2 hPa 0,0 l/m 2 min 0 min 647 W/m 12,9 km/h (3 Bft) 97,87 %
26.06.2019 17:00 32,3 C 31,7 C 31,1 C 62 % 1024,3 hPa 0,0 l/m 2 min 0 min 633 W/m 9,7 km/h (2 Bft) 95,74 %
26.06.2019 17:02 32,3 C 31,7 C 31,1 C 60 % 1024,2 hPa 0,0 l/m 2 min 0 min 645 W/m 9,7 km/h (2 Bft) 97,87 %
26.06.2019 17:04 32,3 C 31,7 C 30,6 C 61 % 1024,2 hPa 0,0 l/m 2 min 0 min 631 W/m 9,7 km/h (2 Bft) 95,74 %
26.06.2019 17:06 32,3 C 31,1 C 30,6 C 61 % 1024,2 hPa 0,0 l/m 2 min 0 min 633 W/m 19,3 km/h (3 Bft) 95,65 %
26.06.2019 17:08 32,3 C 31,1 C 30,6 C 62 % 1024,2 hPa 0,0 l/m 2 min 0 min 625 W/m 12,9 km/h (3 Bft) 95,74 %
26.06.2019 17:10 32,3 C 31,1 C 30,6 C 61 % 1024,2 hPa 0,0 l/m 2 min 0 min 622 W/m 16,1 km/h (3 Bft) 93,62 %
26.06.2019 17:12 32,2 C 31,1 C 30,6 C 61 % 1024,1 hPa 0,0 l/m 2 min 0 min 621 W/m 12,9 km/h (3 Bft) 95,74 %
26.06.2019 17:14 32,2 C 31,1 C 31,1 C 61 % 1024,1 hPa 0,0 l/m 2 min 0 min 618 W/m 16,1 km/h (3 Bft) 95,74 %
26.06.2019 17:16 32,2 C 31,1 C 31,1 C 63 % 1024,1 hPa 0,0 l/m 2 min 0 min 616 W/m 3,2 km/h (1 Bft) 95,74 %
26.06.2019 17:18 32,2 C 31,7 C 31,7 C 63 % 1024,0 hPa 0,0 l/m 2 min 0 min 604 W/m 9,7 km/h (2 Bft) 93,62 %
26.06.2019 17:20 32,3 C 31,7 C 31,1 C 62 % 1024,0 hPa 0,0 l/m 2 min 0 min 602 W/m 16,1 km/h (3 Bft) 95,65 %
26.06.2019 17:22 32,2 C 31,1 C 31,1 C 61 % 1024,0 hPa 0,0 l/m 2 min 0 min 595 W/m 12,9 km/h (3 Bft) 95,74 %
26.06.2019 17:24 32,2 C 31,1 C 31,1 C 62 % 1024,0 hPa 0,0 l/m 2 min 0 min 590 W/m 16,1 km/h (3 Bft) 95,74 %
26.06.2019 17:26 32,2 C 31,7 C 30,6 C 62 % 1024,0 hPa 0,0 l/m 2 min 0 min 576 W/m 6,4 km/h (2 Bft) 97,87 %
26.06.2019 17:28 32,2 C 31,7 C 30,6 C 62 % 1024,0 hPa 0,0 l/m 2 min 0 min 570 W/m 9,7 km/h (2 Bft) 93,62 %
26.06.2019 17:30 32,2 C 31,1 C 30,6 C 63 % 1024,0 hPa 0,0 l/m 2 min 0 min 567 W/m 12,9 km/h (3 Bft) 95,65 %
26.06.2019 17:32 32,2 C 31,7 C 30,6 C 62 % 1023,9 hPa 0,0 l/m 2 min 0 min 563 W/m 9,7 km/h (2 Bft) 97,87 %
26.06.2019 17:34 32,2 C 31,7 C 30,6 C 62 % 1024,0 hPa 0,0 l/m 2 min 0 min 561 W/m 9,7 km/h (2 Bft) 97,87 %
26.06.2019 17:36 32,2 C 31,7 C 30,6 C 62 % 1024,1 hPa 0,0 l/m 2 min 0 min 558 W/m 6,4 km/h (2 Bft) 95,74 %
26.06.2019 17:38 32,2 C 31,7 C 30,6 C 62 % 1024,1 hPa 0,0 l/m 2 min 0 min 555 W/m 9,7 km/h (2 Bft) 97,87 %
26.06.2019 17:40 32,2 C 31,7 C 30,6 C 62 % 1023,9 hPa 0,0 l/m 2 min 0 min 555 W/m 6,4 km/h (2 Bft) 97,87 %
26.06.2019 17:42 32,2 C 31,7 C 30,6 C 62 % 1023,9 hPa 0,0 l/m 2 min 0 min 548 W/m 12,9 km/h (3 Bft) 97,83 %
26.06.2019 17:44 32,2 C 31,7 C 30,6 C 61 % 1023,8 hPa 0,0 l/m 2 min 0 min 548 W/m 16,1 km/h (3 Bft) 100,00 %
26.06.2019 17:46 32,2 C 31,1 C 30,0 C 62 % 1023,8 hPa 0,0 l/m 2 min 0 min 542 W/m 9,7 km/h (2 Bft) 97,87 %
26.06.2019 17:48 32,2 C 31,7 C 30,6 C 62 % 1023,7 hPa 0,0 l/m 2 min 0 min 529 W/m 12,9 km/h (3 Bft) 100,00 %
26.06.2019 17:50 32,2 C 31,7 C 30,0 C 61 % 1023,8 hPa 0,0 l/m 2 min 0 min 524 W/m 16,1 km/h (3 Bft) 100,00 %
26.06.2019 17:52 32,2 C 31,1 C 30,0 C 61 % 1023,8 hPa 0,0 l/m 2 min 0 min 519 W/m 9,7 km/h (2 Bft) 100,00 %
26.06.2019 17:54 32,2 C 31,1 C 30,6 C 61 % 1023,8 hPa 0,0 l/m 2 min 0 min 513 W/m 9,7 km/h (2 Bft) 97,83 %
26.06.2019 17:56 32,2 C 31,1 C 30,6 C 62 % 1023,8 hPa 0,0 l/m 2 min 0 min 507 W/m 9,7 km/h (2 Bft) 100,00 %
26.06.2019 17:58 32,2 C 31,1 C 30,6 C 62 % 1023,8 hPa 0,0 l/m 2 min 0 min 502 W/m 9,7 km/h (2 Bft) 97,87 %
26.06.2019 18:00 32,2 C 31,7 C 30,6 C 62 % 1023,8 hPa 0,0 l/m 2 min 0 min 495 W/m 6,4 km/h (2 Bft) 97,87 %
26.06.2019 18:02 32,2 C 31,7 C 30,6 C 63 % 1023,7 hPa 0,0 l/m 2 min 0 min 491 W/m 6,4 km/h (2 Bft) 100,00 %
26.06.2019 18:04 32,2 C 31,1 C 31,1 C 63 % 1023,8 hPa 0,0 l/m 2 min 0 min 482 W/m 9,7 km/h (2 Bft) 100,00 %
26.06.2019 18:08 32,2 C 31,1 C 32,8 C 63 % 1023,8 hPa 0,0 l/m 4 min 0 min 478 W/m 6,4 km/h (2 Bft) 98,92 %
26.06.2019 18:10 32,2 C 31,1 C 32,2 C 63 % 1023,8 hPa 0,0 l/m 2 min 0 min 472 W/m 6,4 km/h (2 Bft) 100,00 %
26.06.2019 18:12 32,2 C 31,7 C 31,7 C 63 % 1023,8 hPa 0,0 l/m 2 min 0 min 466 W/m 12,9 km/h (3 Bft) 100,00 %
26.06.2019 18:14 32,2 C 31,1 C 31,1 C 61 % 1023,8 hPa 0,0 l/m 2 min 0 min 454 W/m 9,7 km/h (2 Bft) 97,87 %
26.06.2019 18:16 32,1 C 31,1 C 30,6 C 62 % 1023,8 hPa 0,0 l/m 2 min 0 min 452 W/m 9,7 km/h (2 Bft) 100,00 %
26.06.2019 18:18 32,1 C 31,1 C 30,0 C 61 % 1023,8 hPa 0,0 l/m 2 min 0 min 448 W/m 9,7 km/h (2 Bft) 100,00 %
26.06.2019 18:20 32,0 C 31,1 C 30,0 C 61 % 1023,7 hPa 0,0 l/m 2 min 0 min 438 W/m 16,1 km/h (3 Bft) 97,87 %
26.06.2019 18:22 31,9 C 30,6 C 29,4 C 60 % 1023,8 hPa 0,0 l/m 2 min 0 min 427 W/m 22,5 km/h (4 Bft) 97,87 %
26.06.2019 18:24 31,8 C 30,6 C 30,0 C 61 % 1023,8 hPa 0,0 l/m 2 min 0 min 418 W/m 9,7 km/h (2 Bft) 97,87 %
26.06.2019 18:26 31,8 C 30,6 C 29,4 C 62 % 1023,8 hPa 0,0 l/m 2 min 0 min 417 W/m 9,7 km/h (2 Bft) 97,87 %
26.06.2019 18:28 31,8 C 30,6 C 29,4 C 61 % 1023,7 hPa 0,0 l/m 2 min 0 min 409 W/m 16,1 km/h (3 Bft) 95,65 %
26.06.2019 18:30 31,7 C 30,6 C 29,4 C 62 % 1023,8 hPa 0,0 l/m 2 min 0 min 405 W/m 9,7 km/h (2 Bft) 97,87 %
26.06.2019 18:32 31,6 C 30,0 C 28,9 C 62 % 1023,8 hPa 0,0 l/m 2 min 0 min 404 W/m 12,9 km/h (3 Bft) 97,87 %
26.06.2019 18:34 31,5 C 30,0 C 28,9 C 62 % 1023,8 hPa 0,0 l/m 2 min 0 min 397 W/m 16,1 km/h (3 Bft) 97,87 %
26.06.2019 18:36 31,4 C 30,0 C 28,9 C 63 % 1023,8 hPa 0,0 l/m 2 min 0 min 389 W/m 12,9 km/h (3 Bft) 95,74 %
26.06.2019 18:38 31,4 C 30,0 C 28,9 C 62 % 1023,9 hPa 0,0 l/m 2 min 0 min 385 W/m 12,9 km/h (3 Bft) 97,87 %
26.06.2019 18:40 31,3 C 30,0 C 28,3 C 61 % 1023,8 hPa 0,0 l/m 2 min 0 min 378 W/m 16,1 km/h (3 Bft) 97,83 %
26.06.2019 18:42 31,2 C 29,4 C 28,3 C 62 % 1023,9 hPa 0,0 l/m 2 min 0 min 375 W/m 12,9 km/h (3 Bft) 97,87 %
26.06.2019 18:44 31,1 C 29,4 C 28,3 C 62 % 1023,9 hPa 0,0 l/m 2 min 0 min 368 W/m 16,1 km/h (3 Bft) 95,74 %
26.06.2019 18:46 31,0 C 29,4 C 28,3 C 62 % 1023,9 hPa 0,0 l/m 2 min 0 min 364 W/m 12,9 km/h (3 Bft) 97,87 %
26.06.2019 18:48 30,9 C 29,4 C 28,3 C 63 % 1023,9 hPa 0,0 l/m 2 min 0 min 358 W/m 12,9 km/h (3 Bft) 97,87 %
26.06.2019 18:50 30,8 C 29,4 C 28,3 C 61 % 1023,9 hPa 0,0 l/m 2 min 0 min 354 W/m 16,1 km/h (3 Bft) 97,87 %
26.06.2019 18:52 30,7 C 28,9 C 28,3 C 62 % 1023,9 hPa 0,0 l/m 2 min 0 min 348 W/m 16,1 km/h (3 Bft) 95,65 %
26.06.2019 18:54 30,7 C 28,9 C 27,8 C 62 % 1023,9 hPa 0,0 l/m 2 min 0 min 341 W/m 12,9 km/h (3 Bft) 97,87 %
26.06.2019 18:56 30,6 C 28,9 C 27,8 C 63 % 1024,0 hPa 0,0 l/m 2 min 0 min 334 W/m 6,4 km/h (2 Bft) 97,87 %
26.06.2019 18:58 30,5 C 29,4 C 27,8 C 64 % 1023,9 hPa 0,0 l/m 2 min 0 min 332 W/m 9,7 km/h (2 Bft) 95,74 %
26.06.2019 19:00 30,4 C 28,9 C 27,8 C 63 % 1023,9 hPa 0,0 l/m 2 min 0 min 328 W/m 22,5 km/h (4 Bft) 95,74 %
26.06.2019 19:02 30,3 C 28,9 C 27,8 C 63 % 1023,9 hPa 0,0 l/m 2 min 0 min 324 W/m 19,3 km/h (3 Bft) 97,87 %
26.06.2019 19:04 30,3 C 28,9 C 28,3 C 63 % 1023,9 hPa 0,0 l/m 2 min 0 min 318 W/m 9,7 km/h (2 Bft) 95,65 %
26.06.2019 19:06 30,2 C 28,9 C 27,8 C 63 % 1023,9 hPa 0,0 l/m 2 min 0 min 313 W/m 9,7 km/h (2 Bft) 95,74 %
26.06.2019 19:08 30,1 C 28,9 C 27,8 C 62 % 1023,9 hPa 0,0 l/m 2 min 0 min 307 W/m 12,9 km/h (3 Bft) 93,62 %
26.06.2019 19:10 30,0 C 28,9 C 27,8 C 63 % 1023,9 hPa 0,0 l/m 2 min 0 min 302 W/m 12,9 km/h (3 Bft) 97,87 %
26.06.2019 19:12 29,9 C 28,9 C 27,8 C 63 % 1024,0 hPa 0,0 l/m 2 min 0 min 295 W/m 16,1 km/h (3 Bft) 95,74 %
26.06.2019 19:14 29,9 C 28,3 C 27,2 C 62 % 1024,0 hPa 0,0 l/m 2 min 0 min 290 W/m 16,1 km/h (3 Bft) 95,74 %
26.06.2019 19:16 29,8 C 28,3 C 27,2 C 63 % 1024,1 hPa 0,0 l/m 2 min 0 min 285 W/m 9,7 km/h (2 Bft) 95,65 %
26.06.2019 19:18 29,8 C 28,3 C 27,2 C 64 % 1024,0 hPa 0,0 l/m 2 min 0 min 278 W/m 16,1 km/h (3 Bft) 97,87 %
26.06.2019 19:20 29,7 C 28,3 C 27,2 C 62 % 1024,0 hPa 0,0 l/m 2 min 0 min 274 W/m 16,1 km/h (3 Bft) 97,87 %
26.06.2019 19:22 29,6 C 28,3 C 26,7 C 62 % 1024,2 hPa 0,0 l/m 2 min 0 min 269 W/m 12,9 km/h (3 Bft) 95,74 %
26.06.2019 19:24 29,5 C 27,8 C 26,7 C 63 % 1024,1 hPa 0,0 l/m 2 min 0 min 262 W/m 12,9 km/h (3 Bft) 95,74 %
26.06.2019 19:26 29,4 C 27,8 C 26,1 C 63 % 1024,2 hPa 0,0 l/m 2 min 0 min 258 W/m 19,3 km/h (3 Bft) 93,48 %
26.06.2019 19:28 29,3 C 27,2 C 25,6 C 64 % 1024,2 hPa 0,0 l/m 2 min 0 min 250 W/m 19,3 km/h (3 Bft) 93,62 %
26.06.2019 19:30 29,2 C 27,2 C 25,6 C 64 % 1024,1 hPa 0,0 l/m 2 min 0 min 243 W/m 12,9 km/h (3 Bft) 93,62 %
26.06.2019 19:32 29,1 C 27,2 C 25,6 C 64 % 1024,2 hPa 0,0 l/m 2 min 0 min 227 W/m 12,9 km/h (3 Bft) 93,62 %
26.06.2019 19:34 28,9 C 27,2 C 25,6 C 65 % 1024,2 hPa 0,0 l/m 0 min 0 min 122 W/m 9,7 km/h (2 Bft) 95,74 %
26.06.2019 19:36 28,8 C 26,7 C 25,0 C 66 % 1024,2 hPa 0,0 l/m 0 min 0 min 84 W/m 9,7 km/h (2 Bft) 95,74 %
26.06.2019 19:38 28,7 C 26,7 C 25,0 C 66 % 1024,2 hPa 0,0 l/m 0 min 0 min 88 W/m 6,4 km/h (2 Bft) 95,65 %
26.06.2019 19:40 28,6 C 26,7 C 25,0 C 67 % 1024,2 hPa 0,0 l/m 2 min 0 min 171 W/m 9,7 km/h (2 Bft) 93,62 %
26.06.2019 19:42 28,4 C 26,1 C 24,4 C 67 % 1024,2 hPa 0,0 l/m 2 min 0 min 207 W/m 9,7 km/h (2 Bft) 95,74 %
26.06.2019 19:44 28,2 C 26,1 C 24,4 C 66 % 1024,2 hPa 0,0 l/m 2 min 0 min 201 W/m 16,1 km/h (3 Bft) 95,74 %
26.06.2019 19:46 28,1 C 26,1 C 24,4 C 67 % 1024,2 hPa 0,0 l/m 2 min 0 min 195 W/m 12,9 km/h (3 Bft) 93,62 %
26.06.2019 19:48 28,0 C 26,1 C 24,4 C 68 % 1024,2 hPa 0,0 l/m 2 min 0 min 190 W/m 9,7 km/h (2 Bft) 95,74 %
26.06.2019 19:50 27,9 C 26,1 C 24,4 C 68 % 1024,3 hPa 0,0 l/m 2 min 0 min 183 W/m 9,7 km/h (2 Bft) 95,65 %
26.06.2019 19:52 27,8 C 26,1 C 24,4 C 68 % 1024,4 hPa 0,0 l/m 2 min 0 min 144 W/m 9,7 km/h (2 Bft) 93,62 %
26.06.2019 19:53 27,7 C 25,6 C 24,4 C 70 % 1024,3 hPa 0,0 l/m 0 min 0 min 101 W/m 6,4 km/h (2 Bft) 95,74 %
26.06.2019 19:56 27,6 C 25,6 C 23,9 C 69 % 1024,4 hPa 0,0 l/m 0 min 0 min 74 W/m 9,7 km/h (2 Bft) 95,74 %
26.06.2019 19:58 27,4 C 25,6 C 24,4 C 69 % 1024,3 hPa 0,0 l/m 0 min 0 min 74 W/m 6,4 km/h (2 Bft) 95,74 %
26.06.2019 20:00 27,4 C 25,6 C 24,4 C 69 % 1024,4 hPa 0,0 l/m 0 min 0 min 72 W/m 12,9 km/h (3 Bft) 95,74 %
26.06.2019 20:02 27,2 C 25,6 C 24,4 C 69 % 1024,3 hPa 0,0 l/m 0 min 0 min 71 W/m 19,3 km/h (3 Bft) 95,65 %
26.06.2019 20:04 27,2 C 25,6 C 23,9 C 69 % 1024,3 hPa 0,0 l/m 0 min 0 min 70 W/m 12,9 km/h (3 Bft) 93,62 %
26.06.2019 20:06 27,1 C 25,6 C 23,9 C 69 % 1024,3 hPa 0,0 l/m 0 min 0 min 69 W/m 9,7 km/h (2 Bft) 93,62 %
26.06.2019 20:08 26,9 C 25,0 C 23,9 C 70 % 1024,3 hPa 0,0 l/m 0 min 0 min 67 W/m 9,7 km/h (2 Bft) 97,87 %
26.06.2019 20:10 26,9 C 25,0 C 23,9 C 70 % 1024,3 hPa 0,0 l/m 0 min 0 min 66 W/m 12,9 km/h (3 Bft) 97,87 %
26.06.2019 20:12 26,8 C 25,0 C 23,9 C 70 % 1024,3 hPa 0,0 l/m 0 min 0 min 64 W/m 9,7 km/h (2 Bft) 95,74 %
26.06.2019 20:14 26,7 C 25,0 C 23,9 C 70 % 1024,4 hPa 0,0 l/m 0 min 0 min 62 W/m 12,9 km/h (3 Bft) 100,00 %
26.06.2019 20:16 26,6 C 25,0 C 23,9 C 70 % 1024,3 hPa 0,0 l/m 0 min 0 min 59 W/m 6,4 km/h (2 Bft) 100,00 %
26.06.2019 20:18 26,5 C 25,0 C 23,9 C 71 % 1024,4 hPa 0,0 l/m 0 min 0 min 57 W/m 9,7 km/h (2 Bft) 100,00 %
26.06.2019 20:20 26,5 C 25,0 C 23,9 C 72 % 1024,4 hPa 0,0 l/m 0 min 0 min 54 W/m 6,4 km/h (2 Bft) 100,00 %
26.06.2019 20:22 26,4 C 25,0 C 23,9 C 71 % 1024,4 hPa 0,0 l/m 0 min 0 min 53 W/m 6,4 km/h (2 Bft) 97,87 %
26.06.2019 20:24 26,4 C 25,0 C 23,9 C 72 % 1024,4 hPa 0,0 l/m 0 min 0 min 51 W/m 9,7 km/h (2 Bft) 100,00 %
26.06.2019 20:26 26,3 C 25,0 C 23,9 C 72 % 1024,3 hPa 0,0 l/m 0 min 0 min 49 W/m 9,7 km/h (2 Bft) 100,00 %
26.06.2019 20:28 26,3 C 25,0 C 23,9 C 72 % 1024,4 hPa 0,0 l/m 0 min 0 min 48 W/m 9,7 km/h (2 Bft) 100,00 %
26.06.2019 20:30 26,2 C 24,4 C 23,3 C 72 % 1024,5 hPa 0,0 l/m 0 min 0 min 47 W/m 6,4 km/h (2 Bft) 100,00 %
26.06.2019 20:32 26,2 C 24,4 C 23,3 C 73 % 1024,5 hPa 0,0 l/m 0 min 0 min 45 W/m 6,4 km/h (2 Bft) 93,62 %
26.06.2019 20:34 26,1 C 24,4 C 23,3 C 73 % 1024,4 hPa 0,0 l/m 0 min 0 min 44 W/m 9,7 km/h (2 Bft) 100,00 %
26.06.2019 20:36 26,1 C 24,4 C 23,3 C 72 % 1024,4 hPa 0,0 l/m 0 min 0 min 42 W/m 12,9 km/h (3 Bft) 100,00 %
26.06.2019 20:38 25,9 C 24,4 C 23,3 C 72 % 1024,4 hPa 0,0 l/m 0 min 0 min 41 W/m 9,7 km/h (2 Bft) 97,87 %
26.06.2019 20:40 25,9 C 24,4 C 23,3 C 73 % 1024,5 hPa 0,0 l/m 0 min 0 min 40 W/m 6,4 km/h (2 Bft) 100,00 %
26.06.2019 20:42 25,8 C 24,4 C 23,3 C 73 % 1024,5 hPa 0,0 l/m 0 min 0 min 39 W/m 16,1 km/h (3 Bft) 100,00 %
26.06.2019 20:44 25,8 C 24,4 C 23,3 C 73 % 1024,5 hPa 0,0 l/m 0 min 0 min 37 W/m 16,1 km/h (3 Bft) 100,00 %
26.06.2019 20:46 25,7 C 23,9 C 22,8 C 73 % 1024,5 hPa 0,0 l/m 0 min 0 min 36 W/m 9,7 km/h (2 Bft) 100,00 %
26.06.2019 20:48 25,7 C 23,9 C 22,8 C 73 % 1024,5 hPa 0,0 l/m 0 min 0 min 34 W/m 19,3 km/h (3 Bft) 100,00 %
26.06.2019 20:50 25,6 C 23,9 C 22,8 C 72 % 1024,4 hPa 0,0 l/m 0 min 0 min 33 W/m 9,7 km/h (2 Bft) 100,00 %
26.06.2019 20:52 25,5 C 23,9 C 22,8 C 72 % 1024,5 hPa 0,0 l/m 0 min 0 min 32 W/m 9,7 km/h (2 Bft) 97,87 %
26.06.2019 20:54 25,4 C 23,9 C 22,8 C 73 % 1024,5 hPa 0,0 l/m 0 min 0 min 31 W/m 6,4 km/h (2 Bft) 100,00 %
26.06.2019 20:56 25,4 C 23,9 C 22,8 C 73 % 1024,6 hPa 0,0 l/m 0 min 0 min 30 W/m 16,1 km/h (3 Bft) 100,00 %
26.06.2019 20:58 25,3 C 23,9 C 22,8 C 72 % 1024,5 hPa 0,0 l/m 0 min 0 min 29 W/m 12,9 km/h (3 Bft) 100,00 %
26.06.2019 21:00 25,3 C 23,9 C 22,8 C 72 % 1024,5 hPa 0,0 l/m 0 min 0 min 28 W/m 9,7 km/h (2 Bft) 100,00 %
26.06.2019 21:02 25,2 C 23,9 C 22,8 C 72 % 1024,4 hPa 0,0 l/m 0 min 0 min 26 W/m 9,7 km/h (2 Bft) 100,00 %
26.06.2019 21:04 25,2 C 23,9 C 22,8 C 72 % 1024,5 hPa 0,0 l/m 0 min 0 min 26 W/m 6,4 km/h (2 Bft) 100,00 %
26.06.2019 21:06 25,1 C 23,9 C 22,8 C 72 % 1024,4 hPa 0,0 l/m 0 min 0 min 25 W/m 6,4 km/h (2 Bft) 100,00 %
26.06.2019 21:08 25,1 C 23,9 C 22,8 C 72 % 1024,4 hPa 0,0 l/m 0 min 0 min 23 W/m 9,7 km/h (2 Bft) 100,00 %
26.06.2019 21:10 25,1 C 23,3 C 22,8 C 72 % 1024,5 hPa 0,0 l/m 0 min 0 min 22 W/m 6,4 km/h (2 Bft) 100,00 %
26.06.2019 21:12 25,0 C 23,3 C 22,8 C 73 % 1024,6 hPa 0,0 l/m 0 min 0 min 21 W/m 6,4 km/h (2 Bft) 100,00 %
26.06.2019 21:14 24,9 C 23,3 C 22,8 C 72 % 1024,5 hPa 0,0 l/m 0 min 0 min 20 W/m 29,0 km/h (5 Bft) 100,00 %
26.06.2019 21:16 24,9 C 23,3 C 22,8 C 72 % 1024,5 hPa 0,0 l/m 0 min 0 min 19 W/m 12,9 km/h (3 Bft) 100,00 %
26.06.2019 21:18 24,9 C 23,3 C 22,8 C 72 % 1024,5 hPa 0,0 l/m 0 min 0 min 18 W/m 12,9 km/h (3 Bft) 97,87 %
26.06.2019 21:20 24,8 C 23,3 C 22,8 C 72 % 1024,5 hPa 0,0 l/m 0 min 0 min 18 W/m 9,7 km/h (2 Bft) 100,00 %
26.06.2019 21:22 24,8 C 23,3 C 22,8 C 73 % 1024,4 hPa 0,0 l/m 0 min 0 min 16 W/m 6,4 km/h (2 Bft) 100,00 %
26.06.2019 21:24 24,8 C 23,3 C 22,8 C 72 % 1024,4 hPa 0,0 l/m 0 min 0 min 14 W/m 9,7 km/h (2 Bft) 100,00 %
26.06.2019 21:26 24,7 C 23,3 C 22,8 C 72 % 1024,4 hPa 0,0 l/m 0 min 0 min 14 W/m 6,4 km/h (2 Bft) 100,00 %
26.06.2019 21:28 24,7 C 23,3 C 22,8 C 72 % 1024,4 hPa 0,0 l/m 0 min 0 min 12 W/m 6,4 km/h (2 Bft) 100,00 %
26.06.2019 21:30 24,7 C 23,3 C 22,2 C 73 % 1024,4 hPa 0,0 l/m 0 min 0 min 12 W/m 6,4 km/h (2 Bft) 97,87 %
26.06.2019 21:32 24,6 C 23,3 C 22,2 C 73 % 1024,4 hPa 0,0 l/m 0 min 0 min 11 W/m 6,4 km/h (2 Bft) 100,00 %
26.06.2019 21:34 24,6 C 23,3 C 22,2 C 73 % 1024,4 hPa 0,0 l/m 0 min 0 min 11 W/m 12,9 km/h (3 Bft) 95,65 %
26.06.2019 21:36 24,6 C 23,3 C 22,2 C 73 % 1024,4 hPa 0,0 l/m 0 min 0 min 9 W/m 6,4 km/h (2 Bft) 100,00 %
26.06.2019 21:38 24,6 C 23,3 C 22,2 C 73 % 1024,4 hPa 0,0 l/m 0 min 0 min 9 W/m 6,4 km/h (2 Bft) 100,00 %
26.06.2019 21:40 24,5 C 22,8 C 22,2 C 73 % 1024,4 hPa 0,0 l/m 0 min 0 min 7 W/m 6,4 km/h (2 Bft) 100,00 %
26.06.2019 21:42 24,5 C 22,8 C 22,2 C 73 % 1024,5 hPa 0,0 l/m 0 min 0 min 7 W/m 3,2 km/h (1 Bft) 97,87 %
26.06.2019 21:44 24,4 C 22,8 C 22,2 C 73 % 1024,5 hPa 0,0 l/m 0 min 0 min 6 W/m 9,7 km/h (2 Bft) 100,00 %
26.06.2019 21:46 24,4 C 22,8 C 22,2 C 73 % 1024,5 hPa 0,0 l/m 0 min 0 min 5 W/m 6,4 km/h (2 Bft) 100,00 %
26.06.2019 21:48 24,4 C 22,8 C 22,2 C 73 % 1024,4 hPa 0,0 l/m 0 min 0 min 5 W/m 6,4 km/h (2 Bft) 100,00 %
26.06.2019 21:50 24,3 C 22,8 C 22,2 C 73 % 1024,4 hPa 0,0 l/m 0 min 0 min 4 W/m 9,7 km/h (2 Bft) 100,00 %
26.06.2019 21:52 24,3 C 22,8 C 22,2 C 73 % 1024,4 hPa 0,0 l/m 0 min 0 min 0 W/m 12,9 km/h (3 Bft) 100,00 %
26.06.2019 21:54 24,3 C 22,8 C 22,2 C 73 % 1024,4 hPa 0,0 l/m 0 min 0 min 0 W/m 6,4 km/h (2 Bft) 100,00 %
26.06.2019 21:56 24,2 C 22,8 C 22,2 C 73 % 1024,4 hPa 0,0 l/m 0 min 0 min 0 W/m 6,4 km/h (2 Bft) 97,87 %
26.06.2019 21:58 24,2 C 22,8 C 22,2 C 73 % 1024,5 hPa 0,0 l/m 0 min 0 min 0 W/m 9,7 km/h (2 Bft) 97,83 %
26.06.2019 22:00 24,2 C 22,8 C 22,2 C 74 % 1024,5 hPa 0,0 l/m 0 min 0 min 0 W/m 9,7 km/h (2 Bft) 97,87 %
26.06.2019 22:02 24,1 C 22,8 C 22,2 C 73 % 1024,6 hPa 0,0 l/m 0 min 0 min 0 W/m 9,7 km/h (2 Bft) 95,74 %
26.06.2019 22:04 24,1 C 22,8 C 21,7 C 73 % 1024,6 hPa 0,0 l/m 0 min 0 min 0 W/m 3,2 km/h (1 Bft) 93,62 %
26.06.2019 22:06 24,1 C 22,8 C 21,7 C 73 % 1024,6 hPa 0,0 l/m 0 min 0 min 0 W/m 12,9 km/h (3 Bft) 93,62 %
26.06.2019 22:08 24,0 C 22,8 C 21,7 C 73 % 1024,6 hPa 0,0 l/m 0 min 0 min 0 W/m 9,7 km/h (2 Bft) 95,74 %
26.06.2019 22:10 23,9 C 22,2 C 21,7 C 73 % 1024,6 hPa 0,0 l/m 0 min 0 min 0 W/m 6,4 km/h (2 Bft) 91,30 %
26.06.2019 22:12 23,9 C 22,2 C 21,7 C 73 % 1024,6 hPa 0,0 l/m 0 min 0 min 0 W/m 6,4 km/h (2 Bft) 93,62 %
26.06.2019 22:14 23,9 C 22,2 C 21,7 C 73 % 1024,6 hPa 0,0 l/m 0 min 0 min 0 W/m 9,7 km/h (2 Bft) 93,62 %
26.06.2019 22:16 23,8 C 22,2 C 21,7 C 73 % 1024,7 hPa 0,0 l/m 0 min 0 min 0 W/m 6,4 km/h (2 Bft) 95,74 %
26.06.2019 22:18 23,8 C 22,2 C 21,7 C 73 % 1024,7 hPa 0,0 l/m 0 min 0 min 0 W/m 6,4 km/h (2 Bft) 93,62 %
26.06.2019 22:20 23,8 C 22,2 C 21,7 C 73 % 1024,7 hPa 0,0 l/m 0 min 0 min 0 W/m 3,2 km/h (1 Bft) 97,87 %
26.06.2019 22:22 23,7 C 22,2 C 21,7 C 73 % 1024,7 hPa 0,0 l/m 0 min 0 min 0 W/m 6,4 km/h (2 Bft) 93,48 %
26.06.2019 22:24 23,7 C 22,2 C 21,7 C 73 % 1024,8 hPa 0,0 l/m 0 min 0 min 0 W/m 3,2 km/h (1 Bft) 93,62 %
26.06.2019 22:26 23,7 C 22,2 C 21,7 C 73 % 1024,8 hPa 0,0 l/m 0 min 0 min 0 W/m 9,7 km/h (2 Bft) 91,49 %
26.06.2019 22:28 23,6 C 22,2 C 21,7 C 73 % 1024,8 hPa 0,0 l/m 0 min 0 min 0 W/m 9,7 km/h (2 Bft) 93,62 %
26.06.2019 22:30 23,6 C 22,2 C 21,7 C 73 % 1024,8 hPa 0,0 l/m 0 min 0 min 0 W/m 9,7 km/h (2 Bft) 91,49 %
26.06.2019 22:32 23,6 C 22,2 C 21,7 C 73 % 1024,8 hPa 0,0 l/m 0 min 0 min 0 W/m 6,4 km/h (2 Bft) 93,48 %
26.06.2019 22:34 23,5 C 22,2 C 21,7 C 72 % 1024,7 hPa 0,0 l/m 0 min 0 min 0 W/m 6,4 km/h (2 Bft) 93,62 %
26.06.2019 22:36 23,4 C 22,2 C 21,1 C 72 % 1024,7 hPa 0,0 l/m 0 min 0 min 0 W/m 9,7 km/h (2 Bft) 87,23 %
26.06.2019 22:38 23,4 C 22,2 C 21,7 C 72 % 1024,7 hPa 0,0 l/m 0 min 0 min 0 W/m 6,4 km/h (2 Bft) 93,62 %
26.06.2019 22:40 23,4 C 21,7 C 21,1 C 72 % 1024,7 hPa 0,0 l/m 0 min 0 min 0 W/m 9,7 km/h (2 Bft) 89,36 %
26.06.2019 22:42 23,3 C 21,7 C 21,1 C 72 % 1024,7 hPa 0,0 l/m 0 min 0 min 0 W/m 9,7 km/h (2 Bft) 93,62 %
26.06.2019 22:44 23,3 C 21,7 C 21,1 C 72 % 1024,7 hPa 0,0 l/m 0 min 0 min 0 W/m 3,2 km/h (1 Bft) 93,62 %
26.06.2019 22:46 23,3 C 21,7 C 21,1 C 72 % 1024,6 hPa 0,0 l/m 0 min 0 min 0 W/m 6,4 km/h (2 Bft) 95,65 %
26.06.2019 22:48 23,2 C 21,7 C 21,1 C 72 % 1024,7 hPa 0,0 l/m 0 min 0 min 0 W/m 9,7 km/h (2 Bft) 95,83 %
26.06.2019 22:50 23,2 C 21,7 C 21,1 C 72 % 1024,7 hPa 0,0 l/m 0 min 0 min 0 W/m 9,7 km/h (2 Bft) 95,74 %
26.06.2019 22:52 23,2 C 21,7 C 21,1 C 72 % 1024,7 hPa 0,0 l/m 0 min 0 min 0 W/m 6,4 km/h (2 Bft) 97,87 %
26.06.2019 22:54 23,1 C 21,7 C 21,1 C 72 % 1024,7 hPa 0,0 l/m 0 min 0 min 0 W/m 9,7 km/h (2 Bft) 97,87 %
26.06.2019 22:56 23,1 C 21,7 C 21,1 C 72 % 1024,7 hPa 0,0 l/m 0 min 0 min 0 W/m 6,4 km/h (2 Bft) 95,65 %
26.06.2019 22:58 23,0 C 21,7 C 21,1 C 72 % 1024,8 hPa 0,0 l/m 0 min 0 min 0 W/m 6,4 km/h (2 Bft) 97,87 %
26.06.2019 23:00 23,0 C 21,7 C 21,1 C 72 % 1024,8 hPa 0,0 l/m 0 min 0 min 0 W/m 9,7 km/h (2 Bft) 97,87 %
26.06.2019 23:02 22,9 C 21,1 C 21,1 C 72 % 1024,9 hPa 0,0 l/m 0 min 0 min 0 W/m 6,4 km/h (2 Bft) 97,87 %
26.06.2019 23:04 22,9 C 21,1 C 21,1 C 72 % 1024,8 hPa 0,0 l/m 0 min 0 min 0 W/m 6,4 km/h (2 Bft) 97,87 %
26.06.2019 23:06 22,8 C 21,1 C 20,6 C 72 % 1024,8 hPa 0,0 l/m 0 min 0 min 0 W/m 12,9 km/h (3 Bft) 97,87 %
26.06.2019 23:08 22,8 C 21,1 C 20,6 C 72 % 1024,8 hPa 0,0 l/m 0 min 0 min 0 W/m 3,2 km/h (1 Bft) 97,83 %
26.06.2019 23:10 22,8 C 21,1 C 20,6 C 72 % 1024,8 hPa 0,0 l/m 0 min 0 min 0 W/m 6,4 km/h (2 Bft) 97,87 %
26.06.2019 23:12 22,8 C 21,1 C 20,6 C 72 % 1024,8 hPa 0,0 l/m 0 min 0 min 0 W/m 6,4 km/h (2 Bft) 97,87 %
26.06.2019 23:14 22,7 C 21,1 C 20,6 C 72 % 1024,9 hPa 0,0 l/m 0 min 0 min 0 W/m 3,2 km/h (1 Bft) 97,87 %
26.06.2019 23:16 22,7 C 21,1 C 20,6 C 73 % 1024,8 hPa 0,0 l/m 0 min 0 min 0 W/m 9,7 km/h (2 Bft) 100,00 %
26.06.2019 23:18 22,6 C 21,1 C 20,6 C 73 % 1024,8 hPa 0,0 l/m 0 min 0 min 0 W/m 9,7 km/h (2 Bft) 100,00 %
26.06.2019 23:20 22,6 C 21,1 C 20,6 C 73 % 1024,8 hPa 0,0 l/m 0 min 0 min 0 W/m 6,4 km/h (2 Bft) 100,00 %
26.06.2019 23:22 22,6 C 21,1 C 20,6 C 73 % 1024,9 hPa 0,0 l/m 0 min 0 min 0 W/m 9,7 km/h (2 Bft) 100,00 %
26.06.2019 23:24 22,5 C 21,1 C 20,6 C 73 % 1024,8 hPa 0,0 l/m 0 min 0 min 0 W/m 6,4 km/h (2 Bft) 95,74 %
26.06.2019 23:26 22,4 C 21,1 C 20,6 C 73 % 1024,9 hPa 0,0 l/m 0 min 0 min 0 W/m 12,9 km/h (3 Bft) 100,00 %
26.06.2019 23:28 22,4 C 21,1 C 20,6 C 73 % 1024,9 hPa 0,0 l/m 0 min 0 min 0 W/m 6,4 km/h (2 Bft) 100,00 %
26.06.2019 23:30 22,4 C 21,1 C 20,6 C 74 % 1024,8 hPa 0,0 l/m 0 min 0 min 0 W/m 12,9 km/h (3 Bft) 97,92 %
26.06.2019 23:32 22,3 C 21,1 C 20,6 C 74 % 1024,9 hPa 0,0 l/m 0 min 0 min 0 W/m 6,4 km/h (2 Bft) 100,00 %
26.06.2019 23:34 22,3 C 20,6 C 20,6 C 74 % 1024,9 hPa 0,0 l/m 0 min 0 min 0 W/m 6,4 km/h (2 Bft) 100,00 %
26.06.2019 23:36 22,3 C 20,6 C 20,6 C 74 % 1024,9 hPa 0,0 l/m 0 min 0 min 0 W/m 6,4 km/h (2 Bft) 100,00 %
26.06.2019 23:38 22,2 C 20,6 C 20,0 C 74 % 1024,9 hPa 0,0 l/m 0 min 0 min 0 W/m 3,2 km/h (1 Bft) 100,00 %
26.06.2019 23:40 22,2 C 20,6 C 20,0 C 75 % 1024,9 hPa 0,0 l/m 0 min 0 min 0 W/m 6,4 km/h (2 Bft) 100,00 %
26.06.2019 23:42 22,2 C 20,6 C 20,6 C 75 % 1025,0 hPa 0,0 l/m 0 min 0 min 0 W/m 6,4 km/h (2 Bft) 100,00 %
26.06.2019 23:44 22,1 C 20,6 C 20,0 C 75 % 1025,0 hPa 0,0 l/m 0 min 0 min 0 W/m 6,4 km/h (2 Bft) 100,00 %
26.06.2019 23:46 22,1 C 20,6 C 20,0 C 75 % 1025,0 hPa 0,0 l/m 0 min 0 min 0 W/m 6,4 km/h (2 Bft) 100,00 %
26.06.2019 23:48 22,1 C 20,6 C 20,0 C 75 % 1025,0 hPa 0,0 l/m 0 min 0 min 0 W/m 16,1 km/h (3 Bft) 100,00 %
26.06.2019 23:50 22,0 C 20,6 C 20,0 C 75 % 1024,9 hPa 0,0 l/m 0 min 0 min 0 W/m 6,4 km/h (2 Bft) 100,00 %
26.06.2019 23:52 22,0 C 20,6 C 20,0 C 75 % 1024,9 hPa 0,0 l/m 0 min 0 min 0 W/m 6,4 km/h (2 Bft) 100,00 %
26.06.2019 23:54 21,9 C 20,6 C 20,0 C 75 % 1024,9 hPa 0,0 l/m 0 min 0 min 0 W/m 6,4 km/h (2 Bft) 97,87 %
26.06.2019 23:56 21,9 C 20,6 C 20,0 C 75 % 1024,9 hPa 0,0 l/m 0 min 0 min 0 W/m 6,4 km/h (2 Bft) 100,00 %
26.06.2019 23:58 21,9 C 20,0 C 20,0 C 76 % 1024,9 hPa 0,0 l/m 0 min 0 min 0 W/m 6,4 km/h (2 Bft) 97,96 %
_ Min-Zeit 06:28 23:58 23:38 16:18 00:00 - - - - 01:02 22:36
Minimum _ 21,7 C 20,0 C 20,0 C 60 % 1019,1 hPa - - - - 0,0 km/h (0 Bft) 87,23 %
_ Max-Zeit 16:48 13:08 13:08 05:08 06:26 00:00 12:08 00:00 13:10 21:14 00:46
Maximum _ 32,3 C 37,2 C 38,3 C 89 % 1025,0 hPa 0,0 l/m 4 min 0 min 898 W/m 29,0 km/h
W-NW (5 Bft)
100,00 %
Durchschnitt _ 26,6 C 27,4 C 26,9 C 75 % 1023,8 hPa #0,0 l/m #10:38 h #0 min. 451 W/m 7,2 km/h (2 Bft) 97,48 %
© 2019 W. Hausmann